Darstellungsparameter: Aktuell verwendete Einstellungen:
Skalierung der Graphiken ... ?
xyx+y,   Skalierungsfaktor:      Skalierung: Modus: x, Faktor: 1
Darstellungszeitraum ... ?
Vom - - bis: - -   Zeitraum: 18.05.2020 - 24.05.2020
Min/Max/Avg-Anzeige ... ?
Zeige MMA aktuell
Zeige MMA Monat
Zeige MMA alles
Zeige --A aktuell
Zeige --A Monat
Zeige --A alles
Keine MMA-Anzeige
MMA:
Average (ber die Originaldaten)
MMA-Basis: 18.05.2020 - 24.05.2020
Quicknavigation für Darstellung... ?
Tage:      1T, 2T, 3T, 5T -1T -2T -3T -5T +1T +2T +3T +5T
Wochen: 1W, 2W, 3W -1W -2W -3W +1W +2W +3W
Monate: 1M, 3M, 6M -1M -3M -6M +1M +3M +6M
Jahre:    1J, 3J, 5J, 10J -1J -3J -5J -10J +1J +3J +5J +10J
Nutze für die Darstellung ... ?
Originaldaten oder Mittelwerte auf ...
Stundenbasis Tagesbasis Wochenbasis
Monatsbasis Jahresbasis      Datenbasis: Original-Daten
Darstellen als:
Statistik (Auto) Statistik J:M      Darstellung:
Zur Graphik,    zurück zur Übersicht aller Sensoren.
 
Tabellarische Datenbersicht: ?
 
Sensor: Nr:Datum:Temp:Feuchte:Taupunkt:
Aussen-T/F 1 18-05-2020 00:00:00 9.8 C 76 % 5.78 C
2 18-05-2020 00:05:00 9.7 C 76 % 5.68 C
3 18-05-2020 00:10:00 9.6 C 77 % 5.77 C
4 18-05-2020 00:15:00 9.6 C 77 % 5.77 C
5 18-05-2020 00:20:00 9.5 C 78 % 5.86 C
6 18-05-2020 00:25:00 9.4 C 78 % 5.76 C
7 18-05-2020 00:30:00 9.3 C 78 % 5.67 C
8 18-05-2020 00:35:00 9.2 C 78 % 5.57 C
9 18-05-2020 00:40:00 9.1 C 78 % 5.47 C
10 18-05-2020 00:45:00 9.1 C 79 % 5.66 C
11 18-05-2020 00:50:00 9 C 79 % 5.56 C
12 18-05-2020 00:55:00 8.9 C 79 % 5.46 C
13 18-05-2020 01:00:00 8.8 C 80 % 5.55 C
14 18-05-2020 01:05:00 8.8 C 80 % 5.55 C
15 18-05-2020 01:10:00 8.7 C 80 % 5.45 C
16 18-05-2020 01:15:00 8.7 C 81 % 5.63 C
17 18-05-2020 01:20:00 8.6 C 81 % 5.53 C
18 18-05-2020 01:25:00 8.6 C 81 % 5.53 C
19 18-05-2020 01:30:00 8.6 C 81 % 5.53 C
20 18-05-2020 01:35:00 8.5 C 81 % 5.43 C
21 18-05-2020 01:40:00 8.4 C 81 % 5.33 C
22 18-05-2020 01:45:00 8.3 C 82 % 5.41 C
23 18-05-2020 01:50:00 8.3 C 82 % 5.41 C
24 18-05-2020 01:55:00 8.2 C 82 % 5.32 C
25 18-05-2020 02:00:00 8.2 C 82 % 5.32 C
Sensor: Nr:Datum:Temp:Feuchte:Taupunkt:
Aussen-T/F 26 18-05-2020 02:05:00 8.2 C 83 % 5.49 C
27 18-05-2020 02:10:00 8.1 C 82 % 5.22 C
28 18-05-2020 02:15:00 8 C 83 % 5.29 C
29 18-05-2020 02:20:00 7.9 C 83 % 5.2 C
30 18-05-2020 02:25:00 8 C 84 % 5.47 C
31 18-05-2020 02:30:00 8 C 84 % 5.47 C
32 18-05-2020 02:35:00 8 C 84 % 5.47 C
33 18-05-2020 02:40:00 7.9 C 83 % 5.2 C
34 18-05-2020 02:45:00 7.8 C 83 % 5.1 C
35 18-05-2020 02:50:00 7.7 C 84 % 5.17 C
36 18-05-2020 02:55:00 7.6 C 84 % 5.07 C
37 18-05-2020 03:00:00 7.5 C 84 % 4.98 C
38 18-05-2020 03:05:00 7.4 C 85 % 5.05 C
39 18-05-2020 03:10:00 7.3 C 85 % 4.95 C
40 18-05-2020 03:15:00 7.2 C 85 % 4.85 C
41 18-05-2020 03:20:00 7.2 C 85 % 4.85 C
42 18-05-2020 03:25:00 7.1 C 86 % 4.92 C
43 18-05-2020 03:30:00 7.1 C 87 % 5.09 C
44 18-05-2020 03:35:00 7.1 C 87 % 5.09 C
45 18-05-2020 03:40:00 7.1 C 87 % 5.09 C
46 18-05-2020 03:45:00 7 C 87 % 4.99 C
47 18-05-2020 03:50:00 7 C 87 % 4.99 C
48 18-05-2020 03:55:00 7 C 87 % 4.99 C
49 18-05-2020 04:00:00 6.9 C 87 % 4.89 C
50 18-05-2020 04:05:00 6.9 C 88 % 5.05 C
Sensor: Nr:Datum:Temp:Feuchte:Taupunkt:
Aussen-T/F 51 18-05-2020 04:10:00 6.9 C 88 % 5.05 C
52 18-05-2020 04:15:00 6.8 C 87 % 4.79 C
53 18-05-2020 04:20:00 6.7 C 87 % 4.69 C
54 18-05-2020 04:25:00 6.7 C 87 % 4.69 C
55 18-05-2020 04:30:00 6.6 C 88 % 4.76 C
56 18-05-2020 04:35:00 6.5 C 88 % 4.66 C
57 18-05-2020 04:40:00 6.4 C 88 % 4.56 C
58 18-05-2020 04:45:00 6.4 C 88 % 4.56 C
59 18-05-2020 04:50:00 6.3 C 88 % 4.46 C
60 18-05-2020 04:55:00 6.2 C 88 % 4.36 C
61 18-05-2020 05:00:00 6.2 C 89 % 4.53 C
62 18-05-2020 05:05:00 6.2 C 89 % 4.53 C
63 18-05-2020 05:10:00 6.2 C 89 % 4.53 C
64 18-05-2020 05:15:00 6.2 C 89 % 4.53 C
65 18-05-2020 05:20:00 6.1 C 89 % 4.43 C
66 18-05-2020 05:25:00 6.1 C 89 % 4.43 C
67 18-05-2020 05:30:00 6 C 89 % 4.33 C
68 18-05-2020 05:35:00 5.9 C 89 % 4.23 C
69 18-05-2020 05:40:00 5.9 C 89 % 4.23 C
70 18-05-2020 05:45:00 5.9 C 90 % 4.39 C
71 18-05-2020 05:50:00 5.9 C 90 % 4.39 C
72 18-05-2020 05:55:00 5.9 C 90 % 4.39 C
73 18-05-2020 06:00:00 5.9 C 90 % 4.39 C
74 18-05-2020 06:05:00 5.9 C 90 % 4.39 C
75 18-05-2020 06:10:00 5.9 C 90 % 4.39 C
Sensor: Nr:Datum:Temp:Feuchte:Taupunkt:
Aussen-T/F 76 18-05-2020 06:15:00 5.8 C 90 % 4.29 C
77 18-05-2020 06:20:00 5.8 C 91 % 4.45 C
78 18-05-2020 06:25:00 5.8 C 91 % 4.45 C
79 18-05-2020 06:30:00 5.9 C 91 % 4.55 C
80 18-05-2020 06:35:00 5.9 C 91 % 4.55 C
81 18-05-2020 06:40:00 5.9 C 91 % 4.55 C
82 18-05-2020 06:45:00 6 C 91 % 4.65 C
83 18-05-2020 06:50:00 6.1 C 92 % 4.9 C
84 18-05-2020 06:55:00 6.2 C 92 % 5 C
85 18-05-2020 07:00:00 6.2 C 92 % 5 C
86 18-05-2020 07:05:00 6.3 C 92 % 5.1 C
87 18-05-2020 07:10:00 6.4 C 92 % 5.2 C
88 18-05-2020 07:15:00 6.5 C 92 % 5.3 C
89 18-05-2020 07:20:00 6.6 C 92 % 5.4 C
90 18-05-2020 07:25:00 6.7 C 92 % 5.49 C
91 18-05-2020 07:30:00 6.7 C 92 % 5.49 C
92 18-05-2020 07:35:00 6.8 C 92 % 5.59 C
93 18-05-2020 07:40:00 6.9 C 92 % 5.69 C
94 18-05-2020 07:45:00 7 C 92 % 5.79 C
95 18-05-2020 07:50:00 7.1 C 92 % 5.89 C
96 18-05-2020 07:55:00 7.2 C 92 % 5.99 C
97 18-05-2020 08:00:00 7.3 C 92 % 6.09 C
98 18-05-2020 08:05:00 7.4 C 92 % 6.19 C
99 18-05-2020 08:10:00 7.6 C 92 % 6.39 C
100 18-05-2020 08:15:00 7.7 C 92 % 6.48 C
Sensor: Nr:Datum:Temp:Feuchte:Taupunkt:
Aussen-T/F 101 18-05-2020 08:20:00 7.8 C 92 % 6.58 C
102 18-05-2020 08:25:00 8 C 92 % 6.78 C
103 18-05-2020 08:30:00 8.2 C 92 % 6.98 C
104 18-05-2020 08:35:00 8.3 C 92 % 7.08 C
105 18-05-2020 08:40:00 8.5 C 92 % 7.28 C
106 18-05-2020 08:45:00 8.7 C 92 % 7.47 C
107 18-05-2020 08:50:00 8.9 C 92 % 7.67 C
108 18-05-2020 08:55:00 9.1 C 92 % 7.87 C
109 18-05-2020 09:00:00 9.3 C 91 % 7.91 C
110 18-05-2020 09:05:00 9.6 C 91 % 8.21 C
111 18-05-2020 09:10:00 9.7 C 90 % 8.14 C
112 18-05-2020 09:15:00 10 C 89 % 8.27 C
113 18-05-2020 09:20:00 10.3 C 88 % 8.4 C
114 18-05-2020 09:25:00 10.5 C 88 % 8.6 C
115 18-05-2020 09:30:00 10.7 C 87 % 8.63 C
116 18-05-2020 09:35:00 10.9 C 87 % 8.82 C
117 18-05-2020 09:40:00 11 C 86 % 8.75 C
118 18-05-2020 09:45:00 11.2 C 85 % 8.77 C
119 18-05-2020 09:50:00 11.4 C 85 % 8.97 C
120 18-05-2020 09:55:00 11.7 C 84 % 9.09 C
121 18-05-2020 10:00:00 11.9 C 85 % 9.46 C
122 18-05-2020 10:05:00 12.2 C 84 % 9.58 C
123 18-05-2020 10:10:00 12.3 C 84 % 9.68 C
124 18-05-2020 10:15:00 12.6 C 84 % 9.97 C
125 18-05-2020 10:20:00 12.9 C 83 % 10.09 C
Sensor: Nr:Datum:Temp:Feuchte:Taupunkt:
Aussen-T/F 126 18-05-2020 10:25:00 13.2 C 79 % 9.64 C
127 18-05-2020 10:30:00 13.8 C 76 % 9.65 C
128 18-05-2020 10:35:00 14.4 C 75 % 10.03 C
129 18-05-2020 10:40:00 15 C 70 % 9.58 C
130 18-05-2020 10:45:00 15.7 C 63 % 8.68 C
131 18-05-2020 10:50:00 16.4 C 58 % 8.12 C
132 18-05-2020 10:55:00 17.3 C 55 % 8.18 C
133 18-05-2020 11:00:00 17.9 C 53 % 8.19 C
134 18-05-2020 11:05:00 18.3 C 52 % 8.28 C
135 18-05-2020 11:10:00 18.5 C 50 % 7.89 C
136 18-05-2020 11:15:00 18.7 C 53 % 8.93 C
137 18-05-2020 11:20:00 18.7 C 52 % 8.65 C
138 18-05-2020 11:25:00 18.8 C 52 % 8.75 C
139 18-05-2020 11:30:00 19 C 50 % 8.35 C
140 18-05-2020 11:35:00 19.2 C 50 % 8.53 C
141 18-05-2020 11:40:00 19.3 C 51 % 8.92 C
142 18-05-2020 11:45:00 19.4 C 49 % 8.42 C
143 18-05-2020 11:50:00 19.6 C 49 % 8.6 C
144 18-05-2020 11:55:00 19.7 C 47 % 8.08 C
145 18-05-2020 12:00:00 19.7 C 49 % 8.7 C
146 18-05-2020 12:05:00 19.8 C 48 % 8.48 C
147 18-05-2020 12:10:00 19.9 C 48 % 8.57 C
148 18-05-2020 12:15:00 20.1 C 47 % 8.45 C
149 18-05-2020 12:20:00 20.2 C 47 % 8.54 C
150 18-05-2020 12:25:00 20.3 C 47 % 8.63 C
Sensor: Nr:Datum:Temp:Feuchte:Taupunkt:
Aussen-T/F 151 18-05-2020 12:30:00 20.3 C 47 % 8.63 C
152 18-05-2020 12:35:00 20.2 C 47 % 8.54 C
153 18-05-2020 12:40:00 20.3 C 48 % 8.94 C
154 18-05-2020 12:45:00 20.4 C 46 % 8.4 C
155 18-05-2020 12:50:00 20.7 C 45 % 8.35 C
156 18-05-2020 12:55:00 20.8 C 45 % 8.44 C
157 18-05-2020 13:00:00 20.9 C 44 % 8.2 C
158 18-05-2020 13:05:00 20.9 C 45 % 8.53 C
159 18-05-2020 13:10:00 20.9 C 44 % 8.2 C
160 18-05-2020 13:15:00 21.1 C 43 % 8.04 C
161 18-05-2020 13:20:00 21.2 C 44 % 8.47 C
162 18-05-2020 13:25:00 21.3 C 43 % 8.22 C
163 18-05-2020 13:30:00 21.4 C 43 % 8.31 C
164 18-05-2020 13:35:00 21.6 C 43 % 8.49 C
165 18-05-2020 13:40:00 21.7 C 43 % 8.58 C
166 18-05-2020 13:45:00 22.1 C 43 % 8.95 C
167 18-05-2020 13:50:00 22.2 C 42 % 8.69 C
168 18-05-2020 13:55:00 22.1 C 40 % 7.88 C
169 18-05-2020 14:00:00 22 C 43 % 8.85 C
170 18-05-2020 14:05:00 22.2 C 40 % 7.97 C
171 18-05-2020 14:10:00 22.4 C 41 % 8.51 C
172 18-05-2020 14:15:00 22.6 C 42 % 9.05 C
173 18-05-2020 14:20:00 22.8 C 39 % 8.13 C
174 18-05-2020 14:25:00 22.9 C 40 % 8.59 C
175 18-05-2020 14:30:00 22.8 C 40 % 8.5 C
Sensor: Nr:Datum:Temp:Feuchte:Taupunkt:
Aussen-T/F 176 18-05-2020 14:35:00 22.8 C 38 % 7.75 C
177 18-05-2020 14:40:00 23 C 40 % 8.68 C
178 18-05-2020 14:45:00 23.2 C 38 % 8.11 C
179 18-05-2020 14:50:00 23.4 C 40 % 9.04 C
180 18-05-2020 14:55:00 23.6 C 38 % 8.46 C
181 18-05-2020 15:00:00 23.8 C 37 % 8.25 C
182 18-05-2020 15:05:00 23.8 C 37 % 8.25 C
183 18-05-2020 15:10:00 23.7 C 38 % 8.55 C
184 18-05-2020 15:15:00 23.9 C 37 % 8.33 C
185 18-05-2020 15:20:00 24.2 C 38 % 8.99 C
186 18-05-2020 15:25:00 24.3 C 39 % 9.47 C
187 18-05-2020 15:30:00 24.4 C 37 % 8.78 C
188 18-05-2020 15:35:00 24.6 C 37 % 8.95 C
189 18-05-2020 15:40:00 24.9 C 37 % 9.22 C
190 18-05-2020 15:45:00 25.1 C 37 % 9.39 C
191 18-05-2020 15:50:00 25.2 C 36 % 9.08 C
192 18-05-2020 15:55:00 25.3 C 36 % 9.16 C
193 18-05-2020 16:00:00 25.1 C 36 % 8.99 C
194 18-05-2020 16:05:00 25.1 C 35 % 8.57 C
195 18-05-2020 16:10:00 24.9 C 36 % 8.81 C
196 18-05-2020 16:15:00 25.1 C 36 % 8.99 C
197 18-05-2020 16:20:00 25.5 C 35 % 8.92 C
198 18-05-2020 16:25:00 25.7 C 35 % 9.1 C
199 18-05-2020 16:30:00 25.8 C 35 % 9.19 C
200 18-05-2020 16:35:00 25.8 C 36 % 9.61 C
Sensor: Nr:Datum:Temp:Feuchte:Taupunkt:
Aussen-T/F 201 18-05-2020 16:40:00 26.2 C 35 % 9.54 C
202 18-05-2020 16:45:00 26.1 C 35 % 9.45 C
203 18-05-2020 16:50:00 25.9 C 34 % 8.85 C
204 18-05-2020 16:55:00 25.9 C 35 % 9.27 C
205 18-05-2020 17:00:00 25.9 C 34 % 8.85 C
206 18-05-2020 17:05:00 25.7 C 34 % 8.67 C
207 18-05-2020 17:10:00 25.8 C 36 % 9.61 C
208 18-05-2020 17:15:00 26 C 35 % 9.36 C
209 18-05-2020 17:20:00 26 C 35 % 9.36 C
210 18-05-2020 17:25:00 25.8 C 36 % 9.61 C
211 18-05-2020 17:30:00 25.9 C 36 % 9.69 C
212 18-05-2020 17:35:00 25.8 C 36 % 9.61 C
213 18-05-2020 17:40:00 25.9 C 37 % 10.1 C
214 18-05-2020 17:45:00 25.9 C 36 % 9.69 C
215 18-05-2020 17:50:00 25.8 C 37 % 10.01 C
216 18-05-2020 17:55:00 25.9 C 37 % 10.1 C
217 18-05-2020 18:00:00 26 C 37 % 10.19 C
218 18-05-2020 18:05:00 26.2 C 37 % 10.37 C
219 18-05-2020 18:10:00 26.1 C 37 % 10.28 C
220 18-05-2020 18:15:00 26 C 37 % 10.19 C
221 18-05-2020 18:20:00 26 C 37 % 10.19 C
222 18-05-2020 18:25:00 25.9 C 38 % 10.5 C
223 18-05-2020 18:30:00 25.9 C 38 % 10.5 C
224 18-05-2020 18:35:00 26.1 C 38 % 10.68 C
225 18-05-2020 18:40:00 26.2 C 38 % 10.77 C
Sensor: Nr:Datum:Temp:Feuchte:Taupunkt:
Aussen-T/F 226 18-05-2020 18:45:00 26.1 C 39 % 11.07 C
227 18-05-2020 18:50:00 26.1 C 39 % 11.07 C
228 18-05-2020 18:55:00 26 C 39 % 10.98 C
229 18-05-2020 19:00:00 25.9 C 39 % 10.89 C
230 18-05-2020 19:05:00 25.8 C 39 % 10.8 C
231 18-05-2020 19:10:00 25.6 C 39 % 10.62 C
232 18-05-2020 19:15:00 25.5 C 41 % 11.29 C
233 18-05-2020 19:20:00 25.1 C 41 % 10.93 C
234 18-05-2020 19:25:00 24.8 C 42 % 11.02 C
235 18-05-2020 19:30:00 24.6 C 43 % 11.2 C
236 18-05-2020 19:35:00 24.5 C 43 % 11.11 C
237 18-05-2020 19:40:00 24.3 C 44 % 11.27 C
238 18-05-2020 19:45:00 24.2 C 44 % 11.18 C
239 18-05-2020 19:50:00 24.1 C 45 % 11.43 C
240 18-05-2020 19:55:00 23.8 C 45 % 11.16 C
241 18-05-2020 20:00:00 23.7 C 46 % 11.4 C
242 18-05-2020 20:05:00 23.6 C 46 % 11.31 C
243 18-05-2020 20:10:00 23.4 C 47 % 11.45 C
244 18-05-2020 20:15:00 23.3 C 47 % 11.36 C
245 18-05-2020 20:20:00 23.2 C 48 % 11.59 C
246 18-05-2020 20:25:00 23 C 48 % 11.41 C
247 18-05-2020 20:30:00 22.8 C 48 % 11.22 C
248 18-05-2020 20:35:00 22.7 C 49 % 11.44 C
249 18-05-2020 20:40:00 22.6 C 49 % 11.35 C
250 18-05-2020 20:45:00 22.4 C 50 % 11.47 C
Sensor: Nr:Datum:Temp:Feuchte:Taupunkt:
Aussen-T/F 251 18-05-2020 20:50:00 22.2 C 52 % 11.88 C
252 18-05-2020 20:55:00 21.8 C 52 % 11.51 C
253 18-05-2020 21:00:00 21.3 C 55 % 11.9 C
254 18-05-2020 21:05:00 20.9 C 55 % 11.53 C
255 18-05-2020 21:10:00 20.6 C 56 % 11.52 C
256 18-05-2020 21:15:00 20.2 C 57 % 11.42 C
257 18-05-2020 21:20:00 19.8 C 58 % 11.3 C
258 18-05-2020 21:25:00 19.5 C 58 % 11.02 C
259 18-05-2020 21:30:00 19.2 C 60 % 11.25 C
260 18-05-2020 21:35:00 18.8 C 61 % 11.13 C
261 18-05-2020 21:40:00 18.6 C 61 % 10.94 C
262 18-05-2020 21:45:00 18.3 C 62 % 10.9 C
263 18-05-2020 21:50:00 18.1 C 63 % 10.95 C
264 18-05-2020 21:55:00 17.9 C 64 % 11 C
265 18-05-2020 22:00:00 17.7 C 64 % 10.81 C
266 18-05-2020 22:05:00 17.6 C 65 % 10.95 C
267 18-05-2020 22:10:00 17.4 C 65 % 10.76 C
268 18-05-2020 22:15:00 17.3 C 66 % 10.89 C
269 18-05-2020 22:20:00 17.2 C 66 % 10.8 C
270 18-05-2020 22:25:00 17.1 C 67 % 10.93 C
271 18-05-2020 22:30:00 17 C 67 % 10.83 C
272 18-05-2020 22:35:00 16.9 C 68 % 10.96 C
273 18-05-2020 22:40:00 16.8 C 69 % 11.09 C
274 18-05-2020 22:45:00 16.6 C 69 % 10.89 C
275 18-05-2020 22:50:00 16.4 C 70 % 10.92 C
Sensor: Nr:Datum:Temp:Feuchte:Taupunkt:
Aussen-T/F 276 18-05-2020 22:55:00 16.3 C 70 % 10.82 C
277 18-05-2020 23:00:00 16.2 C 71 % 10.94 C
278 18-05-2020 23:05:00 16.2 C 71 % 10.94 C
279 18-05-2020 23:10:00 16.1 C 71 % 10.84 C
280 18-05-2020 23:15:00 16 C 71 % 10.75 C
281 18-05-2020 23:20:00 15.9 C 72 % 10.86 C
282 18-05-2020 23:25:00 15.8 C 72 % 10.77 C
283 18-05-2020 23:30:00 15.7 C 73 % 10.88 C
284 18-05-2020 23:35:00 15.4 C 73 % 10.59 C
285 18-05-2020 23:40:00 15.3 C 73 % 10.49 C
286 18-05-2020 23:45:00 15.3 C 74 % 10.7 C
287 18-05-2020 23:50:00 15.2 C 74 % 10.6 C
288 18-05-2020 23:55:00 15.2 C 74 % 10.6 C
289 19-05-2020 00:00:00 15 C 75 % 10.61 C
290 19-05-2020 00:05:00 14.8 C 75 % 10.42 C
291 19-05-2020 00:10:00 14.6 C 76 % 10.42 C
292 19-05-2020 00:15:00 14.4 C 76 % 10.23 C
293 19-05-2020 00:20:00 14.1 C 76 % 9.94 C
294 19-05-2020 00:25:00 13.9 C 77 % 9.94 C
295 19-05-2020 00:30:00 13.7 C 78 % 9.94 C
296 19-05-2020 00:35:00 13.4 C 79 % 9.84 C
297 19-05-2020 00:40:00 13.3 C 79 % 9.74 C
298 19-05-2020 00:45:00 13.2 C 80 % 9.83 C
299 19-05-2020 00:50:00 13 C 80 % 9.63 C
300 19-05-2020 00:55:00 12.9 C 80 % 9.54 C
Sensor: Nr:Datum:Temp:Feuchte:Taupunkt:
Aussen-T/F 301 19-05-2020 01:00:00 12.7 C 81 % 9.53 C
302 19-05-2020 01:05:00 12.6 C 82 % 9.61 C
303 19-05-2020 01:10:00 12.4 C 82 % 9.42 C
304 19-05-2020 01:15:00 12.3 C 83 % 9.5 C
305 19-05-2020 01:20:00 12.2 C 83 % 9.4 C
306 19-05-2020 01:25:00 12.1 C 84 % 9.48 C
307 19-05-2020 01:30:00 12 C 84 % 9.38 C
308 19-05-2020 01:35:00 11.9 C 85 % 9.46 C
309 19-05-2020 01:40:00 11.9 C 85 % 9.46 C
310 19-05-2020 01:45:00 11.8 C 85 % 9.36 C
311 19-05-2020 01:50:00 11.6 C 85 % 9.17 C
312 19-05-2020 01:55:00 11.5 C 85 % 9.07 C
313 19-05-2020 02:00:00 11.5 C 85 % 9.07 C
314 19-05-2020 02:05:00 11.4 C 85 % 8.97 C
315 19-05-2020 02:10:00 11.3 C 84 % 8.7 C
316 19-05-2020 02:15:00 11.3 C 85 % 8.87 C
317 19-05-2020 02:20:00 11.2 C 85 % 8.77 C
318 19-05-2020 02:25:00 11.2 C 85 % 8.77 C
319 19-05-2020 02:30:00 11.1 C 85 % 8.68 C
320 19-05-2020 02:35:00 10.9 C 85 % 8.48 C
321 19-05-2020 02:40:00 10.8 C 85 % 8.38 C
322 19-05-2020 02:45:00 10.7 C 85 % 8.28 C
323 19-05-2020 02:50:00 10.6 C 85 % 8.19 C
324 19-05-2020 02:55:00 10.4 C 86 % 8.16 C
325 19-05-2020 03:00:00 10.4 C 86 % 8.16 C
Sensor: Nr:Datum:Temp:Feuchte:Taupunkt:
Aussen-T/F 326 19-05-2020 03:05:00 10.3 C 87 % 8.23 C
327 19-05-2020 03:10:00 10.2 C 87 % 8.14 C
328 19-05-2020 03:15:00 10.1 C 87 % 8.04 C
329 19-05-2020 03:20:00 9.9 C 87 % 7.84 C
330 19-05-2020 03:25:00 9.8 C 88 % 7.91 C
331 19-05-2020 03:30:00 9.7 C 88 % 7.81 C
332 19-05-2020 03:35:00 9.7 C 88 % 7.81 C
333 19-05-2020 03:40:00 9.6 C 89 % 7.88 C
334 19-05-2020 03:45:00 9.5 C 89 % 7.78 C
335 19-05-2020 03:50:00 9.4 C 89 % 7.68 C
336 19-05-2020 03:55:00 9.3 C 89 % 7.58 C
337 19-05-2020 04:00:00 9.2 C 89 % 7.48 C
338 19-05-2020 04:05:00 9.1 C 90 % 7.55 C
339 19-05-2020 04:10:00 9 C 90 % 7.45 C
340 19-05-2020 04:15:00 8.9 C 90 % 7.35 C
341 19-05-2020 04:20:00 8.9 C 90 % 7.35 C
342 19-05-2020 04:25:00 8.9 C 91 % 7.51 C
343 19-05-2020 04:30:00 8.8 C 91 % 7.41 C
344 19-05-2020 04:35:00 8.9 C 91 % 7.51 C
345 19-05-2020 04:40:00 8.8 C 91 % 7.41 C
346 19-05-2020 04:45:00 8.8 C 91 % 7.41 C
347 19-05-2020 04:50:00 8.7 C 91 % 7.32 C
348 19-05-2020 04:55:00 8.7 C 90 % 7.15 C
349 19-05-2020 05:00:00 8.7 C 90 % 7.15 C
350 19-05-2020 05:05:00 8.7 C 91 % 7.32 C
Sensor: Nr:Datum:Temp:Feuchte:Taupunkt:
Aussen-T/F 351 19-05-2020 05:10:00 8.6 C 90 % 7.06 C
352 19-05-2020 05:15:00 8.4 C 90 % 6.86 C
353 19-05-2020 05:20:00 8.3 C 90 % 6.76 C
354 19-05-2020 05:25:00 8.3 C 90 % 6.76 C
355 19-05-2020 05:30:00 8.2 C 91 % 6.82 C
356 19-05-2020 05:35:00 8.2 C 91 % 6.82 C
357 19-05-2020 05:40:00 8.1 C 91 % 6.72 C
358 19-05-2020 05:45:00 8.1 C 91 % 6.72 C
359 19-05-2020 05:50:00 8.1 C 91 % 6.72 C
360 19-05-2020 05:55:00 8.1 C 91 % 6.72 C
361 19-05-2020 06:00:00 8.1 C 91 % 6.72 C
362 19-05-2020 06:05:00 8 C 91 % 6.62 C
363 19-05-2020 06:10:00 8.1 C 92 % 6.88 C
364 19-05-2020 06:15:00 8.1 C 92 % 6.88 C
365 19-05-2020 06:20:00 8.2 C 92 % 6.98 C
366 19-05-2020 06:25:00 8.2 C 92 % 6.98 C
367 19-05-2020 06:30:00 8.2 C 91 % 6.82 C
368 19-05-2020 06:35:00 8.2 C 91 % 6.82 C
369 19-05-2020 06:40:00 8.1 C 91 % 6.72 C
370 19-05-2020 06:45:00 8.1 C 91 % 6.72 C
371 19-05-2020 06:50:00 8.1 C 91 % 6.72 C
372 19-05-2020 06:55:00 8.1 C 92 % 6.88 C
373 19-05-2020 07:00:00 8.1 C 92 % 6.88 C
374 19-05-2020 07:05:00 8.2 C 92 % 6.98 C
375 19-05-2020 07:10:00 8.2 C 92 % 6.98 C
Sensor: Nr:Datum:Temp:Feuchte:Taupunkt:
Aussen-T/F 376 19-05-2020 07:15:00 8.3 C 92 % 7.08 C
377 19-05-2020 07:20:00 8.3 C 92 % 7.08 C
378 19-05-2020 07:25:00 8.3 C 92 % 7.08 C
379 19-05-2020 07:30:00 8.3 C 92 % 7.08 C
380 19-05-2020 07:35:00 8.4 C 92 % 7.18 C
381 19-05-2020 07:40:00 8.4 C 92 % 7.18 C
382 19-05-2020 07:45:00 8.5 C 92 % 7.28 C
383 19-05-2020 07:50:00 8.6 C 92 % 7.38 C
384 19-05-2020 07:55:00 8.6 C 92 % 7.38 C
385 19-05-2020 08:00:00 8.7 C 92 % 7.47 C
386 19-05-2020 08:05:00 8.8 C 92 % 7.57 C
387 19-05-2020 08:10:00 8.8 C 92 % 7.57 C
388 19-05-2020 08:15:00 8.9 C 93 % 7.83 C
389 19-05-2020 08:20:00 9.1 C 93 % 8.03 C
390 19-05-2020 08:25:00 9.2 C 93 % 8.13 C
391 19-05-2020 08:30:00 9.3 C 93 % 8.23 C
392 19-05-2020 08:35:00 9.4 C 92 % 8.17 C
393 19-05-2020 08:40:00 9.6 C 92 % 8.37 C
394 19-05-2020 08:45:00 9.7 C 92 % 8.46 C
395 19-05-2020 08:50:00 9.9 C 92 % 8.66 C
396 19-05-2020 08:55:00 10.1 C 92 % 8.86 C
397 19-05-2020 09:00:00 10.2 C 92 % 8.96 C
398 19-05-2020 09:05:00 10.4 C 92 % 9.16 C
399 19-05-2020 09:10:00 10.7 C 92 % 9.45 C
400 19-05-2020 09:15:00 10.8 C 91 % 9.39 C
Sensor: Nr:Datum:Temp:Feuchte:Taupunkt:
Aussen-T/F 401 19-05-2020 09:20:00 11 C 91 % 9.59 C
402 19-05-2020 09:25:00 11.3 C 90 % 9.72 C
403 19-05-2020 09:30:00 11.6 C 89 % 9.85 C
404 19-05-2020 09:35:00 11.9 C 87 % 9.81 C
405 19-05-2020 09:40:00 12.2 C 85 % 9.76 C
406 19-05-2020 09:45:00 12.6 C 83 % 9.79 C
407 19-05-2020 09:50:00 12.9 C 82 % 9.9 C
408 19-05-2020 09:55:00 13.1 C 82 % 10.1 C
409 19-05-2020 10:00:00 13.2 C 80 % 9.83 C
410 19-05-2020 10:05:00 13.4 C 79 % 9.84 C
411 19-05-2020 10:10:00 13.6 C 75 % 9.26 C
412 19-05-2020 10:15:00 13.9 C 75 % 9.55 C
413 19-05-2020 10:20:00 14.3 C 73 % 9.53 C
414 19-05-2020 10:25:00 14.7 C 71 % 9.5 C
415 19-05-2020 10:30:00 15.1 C 67 % 9.02 C
416 19-05-2020 10:35:00 15.5 C 67 % 9.41 C
417 19-05-2020 10:40:00 15.9 C 62 % 8.64 C
418 19-05-2020 10:45:00 16.4 C 59 % 8.38 C
419 19-05-2020 10:50:00 16.8 C 56 % 7.98 C
420 19-05-2020 10:55:00 17.5 C 50 % 6.97 C
421 19-05-2020 11:00:00 18.1 C 51 % 7.81 C
422 19-05-2020 11:05:00 18.7 C 46 % 6.86 C
423 19-05-2020 11:10:00 19.1 C 46 % 7.22 C
424 19-05-2020 11:15:00 19.4 C 47 % 7.81 C
425 19-05-2020 11:20:00 19.7 C 44 % 7.12 C
Sensor: Nr:Datum:Temp:Feuchte:Taupunkt:
Aussen-T/F 426 19-05-2020 11:25:00 19.8 C 47 % 8.17 C
427 19-05-2020 11:30:00 19.8 C 46 % 7.86 C
428 19-05-2020 11:35:00 19.8 C 44 % 7.21 C
429 19-05-2020 11:40:00 19.8 C 45 % 7.53 C
430 19-05-2020 11:45:00 19.9 C 44 % 7.3 C
431 19-05-2020 11:50:00 20 C 43 % 7.05 C
432 19-05-2020 11:55:00 20.1 C 43 % 7.14 C
433 19-05-2020 12:00:00 20.1 C 44 % 7.48 C
434 19-05-2020 12:05:00 20.1 C 40 % 6.09 C
435 19-05-2020 12:10:00 20.2 C 40 % 6.18 C
436 19-05-2020 12:15:00 20.2 C 41 % 6.54 C
437 19-05-2020 12:20:00 20.2 C 41 % 6.54 C
438 19-05-2020 12:25:00 20.3 C 40 % 6.27 C
439 19-05-2020 12:30:00 20.4 C 40 % 6.36 C
440 19-05-2020 12:35:00 20.4 C 42 % 7.07 C
441 19-05-2020 12:40:00 20.4 C 41 % 6.72 C
442 19-05-2020 12:45:00 20.4 C 38 % 5.62 C
443 19-05-2020 12:50:00 20.6 C 37 % 5.41 C
444 19-05-2020 12:55:00 20.8 C 41 % 7.08 C
445 19-05-2020 13:00:00 20.9 C 40 % 6.81 C
446 19-05-2020 13:05:00 21 C 37 % 5.77 C
447 19-05-2020 13:10:00 21.2 C 39 % 6.71 C
448 19-05-2020 13:15:00 21.4 C 37 % 6.12 C
449 19-05-2020 13:20:00 21.7 C 38 % 6.77 C
450 19-05-2020 13:25:00 21.8 C 37 % 6.48 C
Sensor: Nr:Datum:Temp:Feuchte:Taupunkt:
Aussen-T/F 451 19-05-2020 13:30:00 22 C 37 % 6.65 C
452 19-05-2020 13:35:00 22 C 38 % 7.04 C
453 19-05-2020 13:40:00 22.1 C 38 % 7.13 C
454 19-05-2020 13:45:00 22.2 C 36 % 6.43 C
455 19-05-2020 13:50:00 22.3 C 36 % 6.52 C
456 19-05-2020 13:55:00 22.4 C 36 % 6.61 C
457 19-05-2020 14:00:00 22.4 C 38 % 7.4 C
458 19-05-2020 14:05:00 22.6 C 37 % 7.18 C
459 19-05-2020 14:10:00 23 C 36 % 7.14 C
460 19-05-2020 14:15:00 23.1 C 36 % 7.23 C
461 19-05-2020 14:20:00 23.1 C 36 % 7.23 C
462 19-05-2020 14:25:00 23.3 C 36 % 7.4 C
463 19-05-2020 14:30:00 23.3 C 36 % 7.4 C
464 19-05-2020 14:35:00 23.4 C 37 % 7.89 C
465 19-05-2020 14:40:00 23.5 C 36 % 7.58 C
466 19-05-2020 14:45:00 23.6 C 38 % 8.46 C
467 19-05-2020 14:50:00 23.7 C 38 % 8.55 C
468 19-05-2020 14:55:00 23.7 C 39 % 8.93 C
469 19-05-2020 15:00:00 23.9 C 40 % 9.49 C
470 19-05-2020 15:05:00 24.2 C 39 % 9.38 C
471 19-05-2020 15:10:00 24.2 C 39 % 9.38 C
472 19-05-2020 15:15:00 24.3 C 39 % 9.47 C
473 19-05-2020 15:20:00 24.3 C 38 % 9.08 C
474 19-05-2020 15:25:00 24.3 C 39 % 9.47 C
475 19-05-2020 15:30:00 24.3 C 37 % 8.69 C
Sensor: Nr:Datum:Temp:Feuchte:Taupunkt:
Aussen-T/F 476 19-05-2020 15:35:00 24.1 C 39 % 9.29 C
477 19-05-2020 15:40:00 24.1 C 39 % 9.29 C
478 19-05-2020 15:45:00 24 C 40 % 9.58 C
479 19-05-2020 15:50:00 23.9 C 40 % 9.49 C
480 19-05-2020 15:55:00 23.8 C 41 % 9.76 C
481 19-05-2020 16:00:00 24.1 C 41 % 10.03 C
482 19-05-2020 16:05:00 24.4 C 41 % 10.3 C
483 19-05-2020 16:10:00 24.5 C 40 % 10.02 C
484 19-05-2020 16:15:00 24.5 C 40 % 10.02 C
485 19-05-2020 16:20:00 24.6 C 41 % 10.48 C
486 19-05-2020 16:25:00 25.1 C 40 % 10.56 C
487 19-05-2020 16:30:00 25 C 39 % 10.09 C
488 19-05-2020 16:35:00 24.7 C 40 % 10.2 C
489 19-05-2020 16:40:00 24.8 C 40 % 10.29 C
490 19-05-2020 16:45:00 24.7 C 40 % 10.2 C
491 19-05-2020 16:50:00 24.6 C 40 % 10.11 C
492 19-05-2020 16:55:00 24.4 C 41 % 10.3 C
493 19-05-2020 17:00:00 24.6 C 42 % 10.84 C
494 19-05-2020 17:05:00 24.8 C 42 % 11.02 C
495 19-05-2020 17:10:00 25.1 C 40 % 10.56 C
496 19-05-2020 17:15:00 25 C 41 % 10.84 C
497 19-05-2020 17:20:00 25.1 C 42 % 11.29 C
498 19-05-2020 17:25:00 25.5 C 41 % 11.29 C
499 19-05-2020 17:30:00 25.8 C 41 % 11.56 C
500 19-05-2020 17:35:00 25.7 C 40 % 11.09 C
Sensor: Nr:Datum:Temp:Feuchte:Taupunkt:
Aussen-T/F 501 19-05-2020 17:40:00 25.5 C 41 % 11.29 C
502 19-05-2020 17:45:00 25.5 C 41 % 11.29 C
503 19-05-2020 17:50:00 25.3 C 41 % 11.11 C
504 19-05-2020 17:55:00 25.3 C 42 % 11.47 C
505 19-05-2020 18:00:00 25.4 C 41 % 11.2 C
506 19-05-2020 18:05:00 25.5 C 41 % 11.29 C
507 19-05-2020 18:10:00 25.5 C 41 % 11.29 C
508 19-05-2020 18:15:00 25.5 C 41 % 11.29 C
509 19-05-2020 18:20:00 25.4 C 41 % 11.2 C
510 19-05-2020 18:25:00 25.5 C 42 % 11.65 C
511 19-05-2020 18:30:00 25.4 C 42 % 11.56 C
512 19-05-2020 18:35:00 25.4 C 42 % 11.56 C
513 19-05-2020 18:40:00 25.4 C 42 % 11.56 C
514 19-05-2020 18:45:00 25.4 C 42 % 11.56 C
515 19-05-2020 18:50:00 25.5 C 42 % 11.65 C
516 19-05-2020 18:55:00 25.3 C 42 % 11.47 C
517 19-05-2020 19:00:00 25.2 C 43 % 11.74 C
518 19-05-2020 19:05:00 25.2 C 43 % 11.74 C
519 19-05-2020 19:10:00 25 C 43 % 11.56 C
520 19-05-2020 19:15:00 24.8 C 45 % 12.06 C
521 19-05-2020 19:20:00 24.6 C 44 % 11.54 C
522 19-05-2020 19:25:00 24.4 C 46 % 12.04 C
523 19-05-2020 19:30:00 24.3 C 46 % 11.94 C
524 19-05-2020 19:35:00 24.1 C 47 % 12.09 C
525 19-05-2020 19:40:00 23.9 C 47 % 11.91 C
Sensor: Nr:Datum:Temp:Feuchte:Taupunkt:
Aussen-T/F 526 19-05-2020 19:45:00 23.7 C 47 % 11.73 C
527 19-05-2020 19:50:00 23.6 C 48 % 11.95 C
528 19-05-2020 19:55:00 23.4 C 48 % 11.77 C
529 19-05-2020 20:00:00 23.3 C 48 % 11.68 C
530 19-05-2020 20:05:00 23.1 C 49 % 11.81 C
531 19-05-2020 20:10:00 22.8 C 50 % 11.84 C
532 19-05-2020 20:15:00 22.5 C 50 % 11.56 C
533 19-05-2020 20:20:00 22.4 C 53 % 12.36 C
534 19-05-2020 20:25:00 21.9 C 58 % 13.27 C
535 19-05-2020 20:30:00 21.3 C 58 % 12.71 C
536 19-05-2020 20:35:00 20.9 C 57 % 12.07 C
537 19-05-2020 20:40:00 20.8 C 57 % 11.97 C
538 19-05-2020 20:45:00 20.8 C 58 % 12.24 C
539 19-05-2020 20:50:00 20.8 C 57 % 11.97 C
540 19-05-2020 20:55:00 20.9 C 59 % 12.59 C
541 19-05-2020 21:00:00 20.8 C 60 % 12.76 C
542 19-05-2020 21:05:00 20.7 C 61 % 12.91 C
543 19-05-2020 21:10:00 20.3 C 61 % 12.54 C
544 19-05-2020 21:15:00 20 C 61 % 12.26 C
545 19-05-2020 21:20:00 19.7 C 62 % 12.22 C
546 19-05-2020 21:25:00 19.3 C 63 % 12.09 C
547 19-05-2020 21:30:00 18.9 C 64 % 11.95 C
548 19-05-2020 21:35:00 18.7 C 65 % 11.99 C
549 19-05-2020 21:40:00 18.4 C 66 % 11.94 C
550 19-05-2020 21:45:00 18.2 C 67 % 11.98 C
Sensor: Nr:Datum:Temp:Feuchte:Taupunkt:
Aussen-T/F 551 19-05-2020 21:50:00 17.9 C 67 % 11.69 C
552 19-05-2020 21:55:00 17.8 C 68 % 11.82 C
553 19-05-2020 22:00:00 17.6 C 68 % 11.63 C
554 19-05-2020 22:05:00 17.4 C 69 % 11.66 C
555 19-05-2020 22:10:00 17.3 C 70 % 11.78 C
556 19-05-2020 22:15:00 17.2 C 70 % 11.68 C
557 19-05-2020 22:20:00 17.1 C 70 % 11.59 C
558 19-05-2020 22:25:00 17.1 C 71 % 11.8 C
559 19-05-2020 22:30:00 16.9 C 70 % 11.4 C
560 19-05-2020 22:35:00 16.9 C 71 % 11.61 C
561 19-05-2020 22:40:00 16.8 C 72 % 11.73 C
562 19-05-2020 22:45:00 16.7 C 72 % 11.63 C
563 19-05-2020 22:50:00 16.6 C 73 % 11.74 C
564 19-05-2020 22:55:00 16.4 C 73 % 11.55 C
565 19-05-2020 23:00:00 16.3 C 74 % 11.66 C
566 19-05-2020 23:05:00 16.1 C 75 % 11.67 C
567 19-05-2020 23:10:00 15.9 C 75 % 11.48 C
568 19-05-2020 23:15:00 15.8 C 76 % 11.58 C
569 19-05-2020 23:20:00 15.7 C 76 % 11.48 C
570 19-05-2020 23:25:00 15.6 C 77 % 11.59 C
571 19-05-2020 23:30:00 15.5 C 77 % 11.49 C
572 19-05-2020 23:35:00 15.4 C 77 % 11.39 C
573 19-05-2020 23:40:00 15.3 C 78 % 11.49 C
574 19-05-2020 23:45:00 15.2 C 78 % 11.39 C
575 19-05-2020 23:50:00 15.1 C 79 % 11.49 C
Sensor: Nr:Datum:Temp:Feuchte:Taupunkt:
Aussen-T/F 576 19-05-2020 23:55:00 15.1 C 80 % 11.68 C
577 20-05-2020 00:00:00 15.1 C 81 % 11.87 C
578 20-05-2020 00:05:00 15.1 C 81 % 11.87 C
579 20-05-2020 00:10:00 15.1 C 81 % 11.87 C
580 20-05-2020 00:15:00 15.1 C 81 % 11.87 C
581 20-05-2020 00:20:00 15.1 C 81 % 11.87 C
582 20-05-2020 00:25:00 15.1 C 81 % 11.87 C
583 20-05-2020 00:30:00 15.1 C 81 % 11.87 C
584 20-05-2020 00:35:00 14.9 C 81 % 11.67 C
585 20-05-2020 00:40:00 14.8 C 80 % 11.39 C
586 20-05-2020 00:45:00 14.7 C 81 % 11.48 C
587 20-05-2020 00:50:00 14.5 C 81 % 11.28 C
588 20-05-2020 00:55:00 14.3 C 81 % 11.09 C
589 20-05-2020 01:00:00 14.2 C 82 % 11.17 C
590 20-05-2020 01:05:00 14.1 C 83 % 11.26 C
591 20-05-2020 01:10:00 13.9 C 83 % 11.06 C
592 20-05-2020 01:15:00 13.9 C 83 % 11.06 C
593 20-05-2020 01:20:00 13.8 C 83 % 10.97 C
594 20-05-2020 01:25:00 13.7 C 84 % 11.05 C
595 20-05-2020 01:30:00 13.6 C 84 % 10.95 C
596 20-05-2020 01:35:00 13.5 C 84 % 10.85 C
597 20-05-2020 01:40:00 13.4 C 85 % 10.93 C
598 20-05-2020 01:45:00 13.3 C 85 % 10.83 C
599 20-05-2020 01:50:00 13.3 C 85 % 10.83 C
600 20-05-2020 01:55:00 13.2 C 85 % 10.74 C
Sensor: Nr:Datum:Temp:Feuchte:Taupunkt:
Aussen-T/F 601 20-05-2020 02:00:00 13.1 C 85 % 10.64 C
602 20-05-2020 02:05:00 13 C 86 % 10.72 C
603 20-05-2020 02:10:00 12.9 C 86 % 10.62 C
604 20-05-2020 02:15:00 12.9 C 87 % 10.79 C
605 20-05-2020 02:20:00 12.8 C 87 % 10.69 C
606 20-05-2020 02:25:00 12.8 C 87 % 10.69 C
607 20-05-2020 02:30:00 12.8 C 87 % 10.69 C
608 20-05-2020 02:35:00 12.8 C 87 % 10.69 C
609 20-05-2020 02:40:00 12.8 C 87 % 10.69 C
610 20-05-2020 02:45:00 12.7 C 87 % 10.59 C
611 20-05-2020 02:50:00 12.7 C 87 % 10.59 C
612 20-05-2020 02:55:00 12.6 C 88 % 10.67 C
613 20-05-2020 03:00:00 12.6 C 88 % 10.67 C
614 20-05-2020 03:05:00 12.5 C 88 % 10.57 C
615 20-05-2020 03:10:00 12.4 C 88 % 10.47 C
616 20-05-2020 03:15:00 12.3 C 88 % 10.37 C
617 20-05-2020 03:20:00 12.3 C 88 % 10.37 C
618 20-05-2020 03:25:00 12.2 C 89 % 10.44 C
619 20-05-2020 03:30:00 12.2 C 89 % 10.44 C
620 20-05-2020 03:35:00 12.2 C 89 % 10.44 C
621 20-05-2020 03:40:00 12.1 C 89 % 10.34 C
622 20-05-2020 03:45:00 12.1 C 89 % 10.34 C
623 20-05-2020 03:50:00 12.1 C 90 % 10.51 C
624 20-05-2020 03:55:00 12.1 C 90 % 10.51 C
625 20-05-2020 04:00:00 12.1 C 90 % 10.51 C
Sensor: Nr:Datum:Temp:Feuchte:Taupunkt:
Aussen-T/F 626 20-05-2020 04:05:00 12.1 C 90 % 10.51 C
627 20-05-2020 04:10:00 12.1 C 90 % 10.51 C
628 20-05-2020 04:15:00 12 C 90 % 10.41 C
629 20-05-2020 04:20:00 11.9 C 90 % 10.31 C
630 20-05-2020 04:25:00 11.8 C 90 % 10.21 C
631 20-05-2020 04:30:00 11.8 C 91 % 10.38 C
632 20-05-2020 04:35:00 11.9 C 91 % 10.48 C
633 20-05-2020 04:40:00 11.9 C 91 % 10.48 C
634 20-05-2020 04:45:00 11.9 C 91 % 10.48 C
635 20-05-2020 04:50:00 11.8 C 90 % 10.21 C
636 20-05-2020 04:55:00 11.7 C 90 % 10.12 C
637 20-05-2020 05:00:00 11.6 C 90 % 10.02 C
638 20-05-2020 05:05:00 11.4 C 90 % 9.82 C
639 20-05-2020 05:10:00 11.3 C 91 % 9.89 C
640 20-05-2020 05:15:00 11.3 C 91 % 9.89 C
641 20-05-2020 05:20:00 11.3 C 91 % 9.89 C
642 20-05-2020 05:25:00 11.2 C 91 % 9.79 C
643 20-05-2020 05:30:00 11.2 C 91 % 9.79 C
644 20-05-2020 05:35:00 11.2 C 92 % 9.95 C
645 20-05-2020 05:40:00 11.2 C 92 % 9.95 C
646 20-05-2020 05:45:00 11.3 C 92 % 10.05 C
647 20-05-2020 05:50:00 11.3 C 92 % 10.05 C
648 20-05-2020 05:55:00 11.3 C 92 % 10.05 C
649 20-05-2020 06:00:00 11.3 C 92 % 10.05 C
650 20-05-2020 06:05:00 11.4 C 92 % 10.15 C
Sensor: Nr:Datum:Temp:Feuchte:Taupunkt:
Aussen-T/F 651 20-05-2020 06:10:00 11.4 C 92 % 10.15 C
652 20-05-2020 06:15:00 11.4 C 92 % 10.15 C
653 20-05-2020 06:20:00 11.4 C 92 % 10.15 C
654 20-05-2020 06:25:00 11.4 C 92 % 10.15 C
655 20-05-2020 06:30:00 11.4 C 92 % 10.15 C
656 20-05-2020 06:35:00 11.4 C 92 % 10.15 C
657 20-05-2020 06:40:00 11.5 C 93 % 10.41 C
658 20-05-2020 06:45:00 11.6 C 93 % 10.51 C
659 20-05-2020 06:50:00 11.6 C 92 % 10.35 C
660 20-05-2020 06:55:00 11.6 C 92 % 10.35 C
661 20-05-2020 07:00:00 11.6 C 92 % 10.35 C
662 20-05-2020 07:05:00 11.6 C 92 % 10.35 C
663 20-05-2020 07:10:00 11.6 C 92 % 10.35 C
664 20-05-2020 07:15:00 11.7 C 93 % 10.61 C
665 20-05-2020 07:20:00 11.7 C 93 % 10.61 C
666 20-05-2020 07:25:00 11.8 C 93 % 10.71 C
667 20-05-2020 07:30:00 11.8 C 93 % 10.71 C
668 20-05-2020 07:35:00 12 C 93 % 10.9 C
669 20-05-2020 07:40:00 12.2 C 93 % 11.1 C
670 20-05-2020 07:45:00 12.3 C 94 % 11.36 C
671 20-05-2020 07:50:00 12.6 C 94 % 11.66 C
672 20-05-2020 07:55:00 12.8 C 93 % 11.7 C
673 20-05-2020 08:00:00 13.1 C 93 % 11.99 C
674 20-05-2020 08:05:00 13.2 C 93 % 12.09 C
675 20-05-2020 08:10:00 13.4 C 93 % 12.29 C
Sensor: Nr:Datum:Temp:Feuchte:Taupunkt:
Aussen-T/F 676 20-05-2020 08:15:00 13.8 C 91 % 12.36 C
677 20-05-2020 08:20:00 14.3 C 89 % 12.51 C
678 20-05-2020 08:25:00 14.7 C 87 % 12.56 C
679 20-05-2020 08:30:00 15.2 C 85 % 12.7 C
680 20-05-2020 08:35:00 15.6 C 84 % 12.91 C
681 20-05-2020 08:40:00 15.8 C 83 % 12.92 C
682 20-05-2020 08:45:00 15.9 C 82 % 12.83 C
683 20-05-2020 08:50:00 16.1 C 81 % 12.84 C
684 20-05-2020 08:55:00 16.3 C 81 % 13.04 C
685 20-05-2020 09:00:00 16.4 C 80 % 12.94 C
686 20-05-2020 09:05:00 16.5 C 80 % 13.04 C
687 20-05-2020 09:10:00 16.6 C 79 % 12.95 C
688 20-05-2020 09:15:00 16.7 C 79 % 13.04 C
689 20-05-2020 09:20:00 16.8 C 79 % 13.14 C
690 20-05-2020 09:25:00 16.9 C 78 % 13.04 C
691 20-05-2020 09:30:00 17.1 C 78 % 13.24 C
692 20-05-2020 09:35:00 17.1 C 77 % 13.04 C
693 20-05-2020 09:40:00 17.2 C 77 % 13.14 C
694 20-05-2020 09:45:00 17.3 C 77 % 13.23 C
695 20-05-2020 09:50:00 17.4 C 76 % 13.13 C
696 20-05-2020 09:55:00 17.6 C 75 % 13.12 C
697 20-05-2020 10:00:00 17.7 C 75 % 13.22 C
698 20-05-2020 10:05:00 17.8 C 74 % 13.11 C
699 20-05-2020 10:10:00 18 C 74 % 13.3 C
700 20-05-2020 10:15:00 18.3 C 74 % 13.59 C
Sensor: Nr:Datum:Temp:Feuchte:Taupunkt:
Aussen-T/F 701 20-05-2020 10:20:00 18.5 C 72 % 13.36 C
702 20-05-2020 10:25:00 18.6 C 71 % 13.24 C
703 20-05-2020 10:30:00 18.8 C 71 % 13.43 C
704 20-05-2020 10:35:00 18.9 C 71 % 13.53 C
705 20-05-2020 10:40:00 19 C 71 % 13.63 C
706 20-05-2020 10:45:00 19.2 C 71 % 13.82 C
707 20-05-2020 10:50:00 19.2 C 70 % 13.6 C
708 20-05-2020 10:55:00 19.3 C 70 % 13.69 C
709 20-05-2020 11:00:00 19.4 C 69 % 13.57 C
710 20-05-2020 11:05:00 19.4 C 68 % 13.34 C
711 20-05-2020 11:10:00 19.6 C 68 % 13.54 C
712 20-05-2020 11:15:00 19.7 C 68 % 13.63 C
713 20-05-2020 11:20:00 19.7 C 68 % 13.63 C
714 20-05-2020 11:25:00 19.7 C 67 % 13.4 C
715 20-05-2020 11:30:00 19.7 C 68 % 13.63 C
716 20-05-2020 11:35:00 19.6 C 68 % 13.54 C
717 20-05-2020 11:40:00 19.6 C 68 % 13.54 C
718 20-05-2020 11:45:00 19.6 C 68 % 13.54 C
719 20-05-2020 11:50:00 19.6 C 69 % 13.76 C
720 20-05-2020 11:55:00 19.7 C 68 % 13.63 C
721 20-05-2020 12:00:00 19.8 C 67 % 13.5 C
722 20-05-2020 12:05:00 19.9 C 67 % 13.59 C
723 20-05-2020 12:10:00 20.1 C 66 % 13.55 C
724 20-05-2020 12:15:00 20.1 C 67 % 13.78 C
725 20-05-2020 12:20:00 20.2 C 67 % 13.88 C
Sensor: Nr:Datum:Temp:Feuchte:Taupunkt:
Aussen-T/F 726 20-05-2020 12:25:00 20.3 C 65 % 13.51 C
727 20-05-2020 12:30:00 20.3 C 66 % 13.74 C
728 20-05-2020 12:35:00 20.2 C 66 % 13.65 C
729 20-05-2020 12:40:00 20.3 C 65 % 13.51 C
730 20-05-2020 12:45:00 20.5 C 65 % 13.7 C
731 20-05-2020 12:50:00 20.6 C 64 % 13.55 C
732 20-05-2020 12:55:00 20.7 C 64 % 13.65 C
733 20-05-2020 13:00:00 20.8 C 64 % 13.74 C
734 20-05-2020 13:05:00 21.1 C 64 % 14.03 C
735 20-05-2020 13:10:00 21 C 62 % 13.44 C
736 20-05-2020 13:15:00 20.9 C 63 % 13.6 C
737 20-05-2020 13:20:00 21.1 C 62 % 13.54 C
738 20-05-2020 13:25:00 21.2 C 62 % 13.63 C
739 20-05-2020 13:30:00 21.3 C 62 % 13.73 C
740 20-05-2020 13:35:00 21.3 C 61 % 13.48 C
741 20-05-2020 13:40:00 21.2 C 61 % 13.38 C
742 20-05-2020 13:45:00 21.2 C 60 % 13.13 C
743 20-05-2020 13:50:00 21.3 C 61 % 13.48 C
744 20-05-2020 13:55:00 21.4 C 60 % 13.32 C
745 20-05-2020 14:00:00 21.3 C 61 % 13.48 C
746 20-05-2020 14:05:00 21.4 C 61 % 13.57 C
747 20-05-2020 14:10:00 21.4 C 60 % 13.32 C
748 20-05-2020 14:15:00 21.6 C 60 % 13.51 C
749 20-05-2020 14:20:00 21.7 C 59 % 13.34 C
750 20-05-2020 14:25:00 21.7 C 60 % 13.6 C
Sensor: Nr:Datum:Temp:Feuchte:Taupunkt:
Aussen-T/F 751 20-05-2020 14:30:00 21.8 C 60 % 13.69 C
752 20-05-2020 14:35:00 22.1 C 59 % 13.72 C
753 20-05-2020 14:40:00 22.3 C 59 % 13.9 C
754 20-05-2020 14:45:00 22.6 C 58 % 13.92 C
755 20-05-2020 14:50:00 22.5 C 57 % 13.56 C
756 20-05-2020 14:55:00 22.3 C 58 % 13.64 C
757 20-05-2020 15:00:00 22.3 C 60 % 14.16 C
758 20-05-2020 15:05:00 22.4 C 58 % 13.73 C
759 20-05-2020 15:10:00 22.5 C 58 % 13.83 C
760 20-05-2020 15:15:00 22.6 C 57 % 13.65 C
761 20-05-2020 15:20:00 22.8 C 56 % 13.57 C
762 20-05-2020 15:25:00 22.9 C 57 % 13.93 C
763 20-05-2020 15:30:00 23.3 C 56 % 14.03 C
764 20-05-2020 15:35:00 23.7 C 53 % 13.56 C
765 20-05-2020 15:40:00 23.8 C 52 % 13.36 C
766 20-05-2020 15:45:00 23.9 C 52 % 13.45 C
767 20-05-2020 15:50:00 24.2 C 52 % 13.73 C
768 20-05-2020 15:55:00 24.3 C 52 % 13.82 C
769 20-05-2020 16:00:00 24.4 C 51 % 13.61 C
770 20-05-2020 16:05:00 24.5 C 51 % 13.7 C
771 20-05-2020 16:10:00 24.6 C 51 % 13.79 C
772 20-05-2020 16:15:00 24.7 C 49 % 13.27 C
773 20-05-2020 16:20:00 24.4 C 49 % 13 C
774 20-05-2020 16:25:00 24.1 C 50 % 13.03 C
775 20-05-2020 16:30:00 23.7 C 52 % 13.26 C
Sensor: Nr:Datum:Temp:Feuchte:Taupunkt:
Aussen-T/F 776 20-05-2020 16:35:00 23.8 C 52 % 13.36 C
777 20-05-2020 16:40:00 24.3 C 50 % 13.22 C
778 20-05-2020 16:45:00 24.2 C 50 % 13.12 C
779 20-05-2020 16:50:00 24.1 C 50 % 13.03 C
780 20-05-2020 16:55:00 24.2 C 50 % 13.12 C
781 20-05-2020 17:00:00 24.4 C 50 % 13.31 C
782 20-05-2020 17:05:00 24.8 C 49 % 13.36 C
783 20-05-2020 17:10:00 25.1 C 49 % 13.64 C
784 20-05-2020 17:15:00 24.9 C 48 % 13.14 C
785 20-05-2020 17:20:00 24.4 C 50 % 13.31 C
786 20-05-2020 17:25:00 24.3 C 51 % 13.52 C
787 20-05-2020 17:30:00 24.2 C 50 % 13.12 C
788 20-05-2020 17:35:00 24.4 C 49 % 13 C
789 20-05-2020 17:40:00 24.6 C 48 % 12.87 C
790 20-05-2020 17:45:00 24.4 C 49 % 13 C
791 20-05-2020 17:50:00 24.5 C 50 % 13.4 C
792 20-05-2020 17:55:00 24.3 C 48 % 12.59 C
793 20-05-2020 18:00:00 24.2 C 48 % 12.5 C
794 20-05-2020 18:05:00 24.3 C 50 % 13.22 C
795 20-05-2020 18:10:00 24.6 C 48 % 12.87 C
796 20-05-2020 18:15:00 24.4 C 49 % 13 C
797 20-05-2020 18:20:00 24.4 C 49 % 13 C
798 20-05-2020 18:25:00 24.5 C 49 % 13.09 C
799 20-05-2020 18:30:00 24.6 C 49 % 13.18 C
800 20-05-2020 18:35:00 24.6 C 48 % 12.87 C
Sensor: Nr:Datum:Temp:Feuchte:Taupunkt:
Aussen-T/F 801 20-05-2020 18:40:00 24.6 C 48 % 12.87 C
802 20-05-2020 18:45:00 24.8 C 47 % 12.73 C
803 20-05-2020 18:50:00 24.8 C 48 % 13.05 C
804 20-05-2020 18:55:00 24.4 C 48 % 12.68 C
805 20-05-2020 19:00:00 24.1 C 49 % 12.72 C
806 20-05-2020 19:05:00 24.2 C 50 % 13.12 C
807 20-05-2020 19:10:00 24.1 C 50 % 13.03 C
808 20-05-2020 19:15:00 24 C 50 % 12.94 C
809 20-05-2020 19:20:00 23.8 C 50 % 12.76 C
810 20-05-2020 19:25:00 23.7 C 50 % 12.67 C
811 20-05-2020 19:30:00 23.5 C 51 % 12.78 C
812 20-05-2020 19:35:00 23.3 C 51 % 12.6 C
813 20-05-2020 19:40:00 23.2 C 52 % 12.8 C
814 20-05-2020 19:45:00 23 C 53 % 12.91 C
815 20-05-2020 19:50:00 22.9 C 53 % 12.82 C
816 20-05-2020 19:55:00 22.8 C 53 % 12.73 C
817 20-05-2020 20:00:00 22.8 C 53 % 12.73 C
818 20-05-2020 20:05:00 22.7 C 53 % 12.63 C
819 20-05-2020 20:10:00 22.4 C 54 % 12.64 C
820 20-05-2020 20:15:00 22.3 C 55 % 12.83 C
821 20-05-2020 20:20:00 22.2 C 55 % 12.73 C
822 20-05-2020 20:25:00 22 C 55 % 12.55 C
823 20-05-2020 20:30:00 21.9 C 55 % 12.46 C
824 20-05-2020 20:35:00 21.7 C 56 % 12.54 C
825 20-05-2020 20:40:00 21.6 C 56 % 12.45 C
Sensor: Nr:Datum:Temp:Feuchte:Taupunkt:
Aussen-T/F 826 20-05-2020 20:45:00 21.4 C 58 % 12.8 C
827 20-05-2020 20:50:00 21.2 C 59 % 12.87 C
828 20-05-2020 20:55:00 21 C 60 % 12.94 C
829 20-05-2020 21:00:00 20.6 C 60 % 12.57 C
830 20-05-2020 21:05:00 20.3 C 61 % 12.54 C
831 20-05-2020 21:10:00 20.1 C 61 % 12.35 C
832 20-05-2020 21:15:00 20 C 61 % 12.26 C
833 20-05-2020 21:20:00 20 C 62 % 12.5 C
834 20-05-2020 21:25:00 19.9 C 64 % 12.89 C
835 20-05-2020 21:30:00 19.6 C 65 % 12.84 C
836 20-05-2020 21:35:00 19.1 C 66 % 12.6 C
837 20-05-2020 21:40:00 18.6 C 67 % 12.36 C
838 20-05-2020 21:45:00 18.2 C 68 % 12.2 C
839 20-05-2020 21:50:00 17.8 C 70 % 12.26 C
840 20-05-2020 21:55:00 17.5 C 71 % 12.19 C
841 20-05-2020 22:00:00 17.3 C 72 % 12.21 C
842 20-05-2020 22:05:00 17.1 C 72 % 12.02 C
843 20-05-2020 22:10:00 16.9 C 73 % 12.03 C
844 20-05-2020 22:15:00 16.8 C 74 % 12.14 C
845 20-05-2020 22:20:00 16.6 C 74 % 11.95 C
846 20-05-2020 22:25:00 16.4 C 75 % 11.96 C
847 20-05-2020 22:30:00 16.3 C 76 % 12.07 C
848 20-05-2020 22:35:00 16.2 C 76 % 11.97 C
849 20-05-2020 22:40:00 16.2 C 76 % 11.97 C
850 20-05-2020 22:45:00 16.1 C 76 % 11.87 C
Sensor: Nr:Datum:Temp:Feuchte:Taupunkt:
Aussen-T/F 851 20-05-2020 22:50:00 16.1 C 77 % 12.07 C
852 20-05-2020 22:55:00 15.9 C 77 % 11.88 C
853 20-05-2020 23:00:00 15.8 C 77 % 11.78 C
854 20-05-2020 23:05:00 15.8 C 77 % 11.78 C
855 20-05-2020 23:10:00 15.7 C 77 % 11.68 C
856 20-05-2020 23:15:00 15.6 C 78 % 11.78 C
857 20-05-2020 23:20:00 15.5 C 78 % 11.68 C
858 20-05-2020 23:25:00 15.4 C 78 % 11.59 C
859 20-05-2020 23:30:00 15.3 C 78 % 11.49 C
860 20-05-2020 23:35:00 15.2 C 79 % 11.59 C
861 20-05-2020 23:40:00 15.1 C 79 % 11.49 C
862 20-05-2020 23:45:00 15 C 79 % 11.39 C
863 20-05-2020 23:50:00 14.9 C 79 % 11.29 C
864 20-05-2020 23:55:00 14.9 C 80 % 11.48 C
865 21-05-2020 00:00:00 14.8 C 80 % 11.39 C
866 21-05-2020 00:05:00 14.7 C 80 % 11.29 C
867 21-05-2020 00:10:00 14.7 C 80 % 11.29 C
868 21-05-2020 00:15:00 14.6 C 80 % 11.19 C
869 21-05-2020 00:20:00 14.5 C 81 % 11.28 C
870 21-05-2020 00:25:00 14.4 C 80 % 11 C
871 21-05-2020 00:30:00 14.4 C 80 % 11 C
872 21-05-2020 00:35:00 14.4 C 80 % 11 C
873 21-05-2020 00:40:00 14.4 C 80 % 11 C
874 21-05-2020 00:45:00 14.5 C 80 % 11.09 C
875 21-05-2020 00:50:00 14.6 C 80 % 11.19 C
Sensor: Nr:Datum:Temp:Feuchte:Taupunkt:
Aussen-T/F 876 21-05-2020 00:55:00 14.6 C 79 % 11 C
877 21-05-2020 01:00:00 14.6 C 79 % 11 C
878 21-05-2020 01:05:00 14.6 C 79 % 11 C
879 21-05-2020 01:10:00 14.7 C 79 % 11.1 C
880 21-05-2020 01:15:00 14.9 C 79 % 11.29 C
881 21-05-2020 01:20:00 14.9 C 78 % 11.1 C
882 21-05-2020 01:25:00 15 C 78 % 11.2 C
883 21-05-2020 01:30:00 14.9 C 78 % 11.1 C
884 21-05-2020 01:35:00 14.8 C 78 % 11 C
885 21-05-2020 01:40:00 14.5 C 79 % 10.91 C
886 21-05-2020 01:45:00 14.3 C 80 % 10.9 C
887 21-05-2020 01:50:00 14.1 C 80 % 10.71 C
888 21-05-2020 01:55:00 13.9 C 81 % 10.7 C
889 21-05-2020 02:00:00 13.7 C 82 % 10.69 C
890 21-05-2020 02:05:00 13.6 C 82 % 10.59 C
891 21-05-2020 02:10:00 13.4 C 83 % 10.57 C
892 21-05-2020 02:15:00 13.3 C 83 % 10.48 C
893 21-05-2020 02:20:00 13.3 C 84 % 10.66 C
894 21-05-2020 02:25:00 13.2 C 84 % 10.56 C
895 21-05-2020 02:30:00 13.1 C 84 % 10.46 C
896 21-05-2020 02:35:00 13 C 85 % 10.54 C
897 21-05-2020 02:40:00 12.9 C 85 % 10.44 C
898 21-05-2020 02:45:00 12.9 C 85 % 10.44 C
899 21-05-2020 02:50:00 12.8 C 86 % 10.52 C
900 21-05-2020 02:55:00 12.8 C 86 % 10.52 C
Sensor: Nr:Datum:Temp:Feuchte:Taupunkt:
Aussen-T/F 901 21-05-2020 03:00:00 12.7 C 86 % 10.42 C
902 21-05-2020 03:05:00 12.7 C 86 % 10.42 C
903 21-05-2020 03:10:00 12.7 C 86 % 10.42 C
904 21-05-2020 03:15:00 12.6 C 87 % 10.5 C
905 21-05-2020 03:20:00 12.6 C 87 % 10.5 C
906 21-05-2020 03:25:00 12.5 C 87 % 10.4 C
907 21-05-2020 03:30:00 12.4 C 87 % 10.3 C
908 21-05-2020 03:35:00 12.4 C 87 % 10.3 C
909 21-05-2020 03:40:00 12.3 C 87 % 10.2 C
910 21-05-2020 03:45:00 12.2 C 87 % 10.1 C
911 21-05-2020 03:50:00 12.1 C 87 % 10 C
912 21-05-2020 03:55:00 12 C 88 % 10.08 C
913 21-05-2020 04:00:00 11.9 C 88 % 9.98 C
914 21-05-2020 04:05:00 11.8 C 88 % 9.88 C
915 21-05-2020 04:10:00 11.8 C 89 % 10.05 C
916 21-05-2020 04:15:00 11.7 C 88 % 9.78 C
917 21-05-2020 04:20:00 11.6 C 89 % 9.85 C
918 21-05-2020 04:25:00 11.4 C 89 % 9.65 C
919 21-05-2020 04:30:00 11.3 C 89 % 9.55 C
920 21-05-2020 04:35:00 11.2 C 89 % 9.46 C
921 21-05-2020 04:40:00 11.2 C 90 % 9.62 C
922 21-05-2020 04:45:00 11.1 C 90 % 9.52 C
923 21-05-2020 04:50:00 11.1 C 90 % 9.52 C
924 21-05-2020 04:55:00 10.9 C 90 % 9.33 C
925 21-05-2020 05:00:00 10.9 C 90 % 9.33 C
Sensor: Nr:Datum:Temp:Feuchte:Taupunkt:
Aussen-T/F 926 21-05-2020 05:05:00 10.8 C 91 % 9.39 C
927 21-05-2020 05:10:00 10.7 C 91 % 9.29 C
928 21-05-2020 05:15:00 10.7 C 91 % 9.29 C
929 21-05-2020 05:20:00 10.7 C 91 % 9.29 C
930 21-05-2020 05:25:00 10.6 C 91 % 9.19 C
931 21-05-2020 05:30:00 10.6 C 92 % 9.36 C
932 21-05-2020 05:35:00 10.5 C 92 % 9.26 C
933 21-05-2020 05:40:00 10.4 C 92 % 9.16 C
934 21-05-2020 05:45:00 10.4 C 92 % 9.16 C
935 21-05-2020 05:50:00 10.3 C 92 % 9.06 C
936 21-05-2020 05:55:00 10.3 C 92 % 9.06 C
937 21-05-2020 06:00:00 10.3 C 92 % 9.06 C
938 21-05-2020 06:05:00 10.3 C 93 % 9.22 C
939 21-05-2020 06:10:00 10.3 C 93 % 9.22 C
940 21-05-2020 06:15:00 10.2 C 93 % 9.12 C
941 21-05-2020 06:20:00 10.2 C 93 % 9.12 C
942 21-05-2020 06:25:00 10.2 C 93 % 9.12 C
943 21-05-2020 06:30:00 10.2 C 93 % 9.12 C
944 21-05-2020 06:35:00 10.2 C 93 % 9.12 C
945 21-05-2020 06:40:00 10.3 C 93 % 9.22 C
946 21-05-2020 06:45:00 10.3 C 93 % 9.22 C
947 21-05-2020 06:50:00 10.3 C 93 % 9.22 C
948 21-05-2020 06:55:00 10.3 C 93 % 9.22 C
949 21-05-2020 07:00:00 10.3 C 94 % 9.38 C
950 21-05-2020 07:05:00 10.3 C 94 % 9.38 C
Sensor: Nr:Datum:Temp:Feuchte:Taupunkt:
Aussen-T/F 951 21-05-2020 07:10:00 10.4 C 94 % 9.48 C
952 21-05-2020 07:15:00 10.5 C 94 % 9.58 C
953 21-05-2020 07:20:00 10.6 C 94 % 9.68 C
954 21-05-2020 07:25:00 10.7 C 94 % 9.77 C
955 21-05-2020 07:30:00 10.7 C 94 % 9.77 C
956 21-05-2020 07:35:00 10.8 C 94 % 9.87 C
957 21-05-2020 07:40:00 10.8 C 94 % 9.87 C
958 21-05-2020 07:45:00 10.9 C 94 % 9.97 C
959 21-05-2020 07:50:00 11 C 95 % 10.23 C
960 21-05-2020 07:55:00 11.1 C 95 % 10.33 C
961 21-05-2020 08:00:00 11.2 C 95 % 10.43 C
962 21-05-2020 08:05:00 11.3 C 95 % 10.53 C
963 21-05-2020 08:10:00 11.4 C 95 % 10.63 C
964 21-05-2020 08:15:00 11.4 C 95 % 10.63 C
965 21-05-2020 08:20:00 11.6 C 95 % 10.83 C
966 21-05-2020 08:25:00 11.7 C 95 % 10.93 C
967 21-05-2020 08:30:00 11.8 C 95 % 11.03 C
968 21-05-2020 08:35:00 11.9 C 95 % 11.13 C
969 21-05-2020 08:40:00 12.1 C 95 % 11.32 C
970 21-05-2020 08:45:00 12.2 C 95 % 11.42 C
971 21-05-2020 08:50:00 12.3 C 95 % 11.52 C
972 21-05-2020 08:55:00 12.5 C 95 % 11.72 C
973 21-05-2020 09:00:00 12.7 C 95 % 11.92 C
974 21-05-2020 09:05:00 12.9 C 95 % 12.12 C
975 21-05-2020 09:10:00 13.1 C 94 % 12.16 C
Sensor: Nr:Datum:Temp:Feuchte:Taupunkt:
Aussen-T/F 976 21-05-2020 09:15:00 13.3 C 94 % 12.36 C
977 21-05-2020 09:20:00 13.6 C 94 % 12.65 C
978 21-05-2020 09:25:00 13.8 C 93 % 12.69 C
979 21-05-2020 09:30:00 14 C 93 % 12.89 C
980 21-05-2020 09:35:00 14.2 C 91 % 12.75 C
981 21-05-2020 09:40:00 14.4 C 91 % 12.95 C
982 21-05-2020 09:45:00 14.7 C 90 % 13.08 C
983 21-05-2020 09:50:00 14.9 C 89 % 13.1 C
984 21-05-2020 09:55:00 15.1 C 88 % 13.13 C
985 21-05-2020 10:00:00 15.3 C 87 % 13.15 C
986 21-05-2020 10:05:00 15.7 C 86 % 13.37 C
987 21-05-2020 10:10:00 16 C 85 % 13.48 C
988 21-05-2020 10:15:00 16.3 C 84 % 13.59 C
989 21-05-2020 10:20:00 16.7 C 84 % 13.98 C
990 21-05-2020 10:25:00 17.1 C 82 % 14 C
991 21-05-2020 10:30:00 17.8 C 78 % 13.91 C
992 21-05-2020 10:35:00 18.6 C 74 % 13.88 C
993 21-05-2020 10:40:00 19.3 C 70 % 13.69 C
994 21-05-2020 10:45:00 19.7 C 69 % 13.86 C
995 21-05-2020 10:50:00 19.9 C 68 % 13.82 C
996 21-05-2020 10:55:00 20.1 C 67 % 13.78 C
997 21-05-2020 11:00:00 20.3 C 67 % 13.97 C
998 21-05-2020 11:05:00 20.6 C 67 % 14.26 C
999 21-05-2020 11:10:00 20.8 C 67 % 14.45 C
1000 21-05-2020 11:15:00 21 C 64 % 13.93 C
Sensor: Nr:Datum:Temp:Feuchte:Taupunkt:
Aussen-T/F 1001 21-05-2020 11:20:00 21.2 C 62 % 13.63 C
1002 21-05-2020 11:25:00 21.3 C 63 % 13.97 C
1003 21-05-2020 11:30:00 21.4 C 62 % 13.82 C
1004 21-05-2020 11:35:00 21.4 C 62 % 13.82 C
1005 21-05-2020 11:40:00 21.5 C 61 % 13.67 C
1006 21-05-2020 11:45:00 21.7 C 60 % 13.6 C
1007 21-05-2020 11:50:00 21.8 C 60 % 13.69 C
1008 21-05-2020 11:55:00 21.8 C 61 % 13.95 C
1009 21-05-2020 12:00:00 21.7 C 61 % 13.85 C
1010 21-05-2020 12:05:00 21.7 C 60 % 13.6 C
1011 21-05-2020 12:10:00 21.8 C 60 % 13.69 C
1012 21-05-2020 12:15:00 21.8 C 60 % 13.69 C
1013 21-05-2020 12:20:00 22 C 61 % 14.14 C
1014 21-05-2020 12:25:00 22.1 C 58 % 13.45 C
1015 21-05-2020 12:30:00 22.1 C 58 % 13.45 C
1016 21-05-2020 12:35:00 22.3 C 58 % 13.64 C
1017 21-05-2020 12:40:00 22.4 C 57 % 13.47 C
1018 21-05-2020 12:45:00 22.5 C 58 % 13.83 C
1019 21-05-2020 12:50:00 22.7 C 57 % 13.75 C
1020 21-05-2020 12:55:00 22.8 C 55 % 13.29 C
1021 21-05-2020 13:00:00 22.8 C 54 % 13.01 C
1022 21-05-2020 13:05:00 22.8 C 56 % 13.57 C
1023 21-05-2020 13:10:00 22.9 C 56 % 13.66 C
1024 21-05-2020 13:15:00 23.1 C 55 % 13.57 C
1025 21-05-2020 13:20:00 23.1 C 57 % 14.12 C
Sensor: Nr:Datum:Temp:Feuchte:Taupunkt:
Aussen-T/F 1026 21-05-2020 13:25:00 23.2 C 57 % 14.21 C
1027 21-05-2020 13:30:00 23.3 C 54 % 13.47 C
1028 21-05-2020 13:35:00 23.4 C 54 % 13.57 C
1029 21-05-2020 13:40:00 23.6 C 54 % 13.75 C
1030 21-05-2020 13:45:00 23.6 C 55 % 14.03 C
1031 21-05-2020 13:50:00 23.5 C 54 % 13.66 C
1032 21-05-2020 13:55:00 23.6 C 55 % 14.03 C
1033 21-05-2020 14:00:00 23.7 C 55 % 14.13 C
1034 21-05-2020 14:05:00 23.9 C 55 % 14.31 C
1035 21-05-2020 14:10:00 24.1 C 54 % 14.21 C
1036 21-05-2020 14:15:00 24.3 C 53 % 14.11 C
1037 21-05-2020 14:20:00 24.4 C 52 % 13.91 C
1038 21-05-2020 14:25:00 24.5 C 53 % 14.3 C
1039 21-05-2020 14:30:00 24.8 C 53 % 14.57 C
1040 21-05-2020 14:35:00 25.1 C 51 % 14.25 C
1041 21-05-2020 14:40:00 25.2 C 50 % 14.04 C
1042 21-05-2020 14:45:00 25.2 C 50 % 14.04 C
1043 21-05-2020 14:50:00 25.1 C 50 % 13.95 C
1044 21-05-2020 14:55:00 25.2 C 50 % 14.04 C
1045 21-05-2020 15:00:00 25.5 C 49 % 14 C
1046 21-05-2020 15:05:00 25.6 C 48 % 13.78 C
1047 21-05-2020 15:10:00 25.7 C 50 % 14.5 C
1048 21-05-2020 15:15:00 26.2 C 46 % 13.67 C
1049 21-05-2020 15:20:00 26.6 C 46 % 14.03 C
1050 21-05-2020 15:25:00 26.9 C 46 % 14.3 C
Sensor: Nr:Datum:Temp:Feuchte:Taupunkt:
Aussen-T/F 1051 21-05-2020 15:30:00 27.1 C 46 % 14.49 C
1052 21-05-2020 15:35:00 27.5 C 47 % 15.18 C
1053 21-05-2020 15:40:00 27.7 C 44 % 14.34 C
1054 21-05-2020 15:45:00 27.8 C 42 % 13.71 C
1055 21-05-2020 15:50:00 27.8 C 42 % 13.71 C
1056 21-05-2020 15:55:00 27.9 C 42 % 13.8 C
1057 21-05-2020 16:00:00 27.9 C 41 % 13.43 C
1058 21-05-2020 16:05:00 27.8 C 42 % 13.71 C
1059 21-05-2020 16:10:00 27.8 C 43 % 14.08 C
1060 21-05-2020 16:15:00 27.8 C 42 % 13.71 C
1061 21-05-2020 16:20:00 27.8 C 45 % 14.78 C
1062 21-05-2020 16:25:00 28.1 C 43 % 14.35 C
1063 21-05-2020 16:30:00 28.1 C 41 % 13.61 C
1064 21-05-2020 16:35:00 28.2 C 41 % 13.7 C
1065 21-05-2020 16:40:00 28.4 C 39 % 13.11 C
1066 21-05-2020 16:45:00 28.2 C 38 % 12.54 C
1067 21-05-2020 16:50:00 28.3 C 40 % 13.41 C
1068 21-05-2020 16:55:00 28.4 C 42 % 14.25 C
1069 21-05-2020 17:00:00 28.5 C 39 % 13.2 C
1070 21-05-2020 17:05:00 28.5 C 40 % 13.59 C
1071 21-05-2020 17:10:00 28.9 C 38 % 13.16 C
1072 21-05-2020 17:15:00 29.2 C 39 % 13.82 C
1073 21-05-2020 17:20:00 28.9 C 37 % 12.75 C
1074 21-05-2020 17:25:00 28.9 C 38 % 13.16 C
1075 21-05-2020 17:30:00 29 C 38 % 13.25 C
Sensor: Nr:Datum:Temp:Feuchte:Taupunkt:
Aussen-T/F 1076 21-05-2020 17:35:00 28.8 C 38 % 13.07 C
1077 21-05-2020 17:40:00 28.7 C 39 % 13.38 C
1078 21-05-2020 17:45:00 28.6 C 38 % 12.89 C
1079 21-05-2020 17:50:00 28.3 C 38 % 12.63 C
1080 21-05-2020 17:55:00 28.1 C 38 % 12.45 C
1081 21-05-2020 18:00:00 27.9 C 40 % 13.05 C
1082 21-05-2020 18:05:00 28.3 C 40 % 13.41 C
1083 21-05-2020 18:10:00 28.9 C 38 % 13.16 C
1084 21-05-2020 18:15:00 28.7 C 36 % 12.16 C
1085 21-05-2020 18:20:00 28.1 C 37 % 12.04 C
1086 21-05-2020 18:25:00 27.9 C 38 % 12.27 C
1087 21-05-2020 18:30:00 27.8 C 38 % 12.18 C
1088 21-05-2020 18:35:00 27.7 C 39 % 12.49 C
1089 21-05-2020 18:40:00 27.5 C 40 % 12.7 C
1090 21-05-2020 18:45:00 27.7 C 40 % 12.88 C
1091 21-05-2020 18:50:00 28 C 42 % 13.89 C
1092 21-05-2020 18:55:00 28.3 C 39 % 13.02 C
1093 21-05-2020 19:00:00 28.4 C 39 % 13.11 C
1094 21-05-2020 19:05:00 28.6 C 40 % 13.68 C
1095 21-05-2020 19:10:00 28.5 C 39 % 13.2 C
1096 21-05-2020 19:15:00 28.6 C 38 % 12.89 C
1097 21-05-2020 19:20:00 28.4 C 40 % 13.5 C
1098 21-05-2020 19:25:00 28.2 C 39 % 12.93 C
1099 21-05-2020 19:30:00 27.9 C 40 % 13.05 C
1100 21-05-2020 19:35:00 27.7 C 41 % 13.25 C
Sensor: Nr:Datum:Temp:Feuchte:Taupunkt:
Aussen-T/F 1101 21-05-2020 19:40:00 27.7 C 43 % 13.99 C
1102 21-05-2020 19:45:00 27.7 C 48 % 15.69 C
1103 21-05-2020 19:50:00 27.7 C 48 % 15.69 C
1104 21-05-2020 19:55:00 27.6 C 48 % 15.6 C
1105 21-05-2020 20:00:00 27.6 C 48 % 15.6 C
1106 21-05-2020 20:05:00 27.3 C 49 % 15.65 C
1107 21-05-2020 20:10:00 26.9 C 49 % 15.28 C
1108 21-05-2020 20:15:00 26.3 C 50 % 15.05 C
1109 21-05-2020 20:20:00 25.7 C 52 % 15.11 C
1110 21-05-2020 20:25:00 25.1 C 54 % 15.14 C
1111 21-05-2020 20:30:00 24.7 C 55 % 15.05 C
1112 21-05-2020 20:35:00 24.5 C 56 % 15.15 C
1113 21-05-2020 20:40:00 24.3 C 57 % 15.24 C
1114 21-05-2020 20:45:00 24.1 C 57 % 15.05 C
1115 21-05-2020 20:50:00 23.8 C 58 % 15.04 C
1116 21-05-2020 20:55:00 23.4 C 59 % 14.93 C
1117 21-05-2020 21:00:00 23.1 C 60 % 14.91 C
1118 21-05-2020 21:05:00 22.6 C 61 % 14.7 C
1119 21-05-2020 21:10:00 22.2 C 62 % 14.58 C
1120 21-05-2020 21:15:00 21.8 C 63 % 14.45 C
1121 21-05-2020 21:20:00 21.5 C 64 % 14.41 C
1122 21-05-2020 21:25:00 21.2 C 65 % 14.36 C
1123 21-05-2020 21:30:00 20.9 C 66 % 14.31 C
1124 21-05-2020 21:35:00 20.7 C 67 % 14.36 C
1125 21-05-2020 21:40:00 20.4 C 67 % 14.07 C
Sensor: Nr:Datum:Temp:Feuchte:Taupunkt:
Aussen-T/F 1126 21-05-2020 21:45:00 20.2 C 68 % 14.11 C
1127 21-05-2020 21:50:00 20 C 69 % 14.14 C
1128 21-05-2020 21:55:00 19.8 C 69 % 13.95 C
1129 21-05-2020 22:00:00 19.7 C 70 % 14.08 C
1130 21-05-2020 22:05:00 19.6 C 70 % 13.98 C
1131 21-05-2020 22:10:00 19.5 C 71 % 14.1 C
1132 21-05-2020 22:15:00 19.4 C 71 % 14.01 C
1133 21-05-2020 22:20:00 19.3 C 72 % 14.13 C
1134 21-05-2020 22:25:00 19.1 C 72 % 13.94 C
1135 21-05-2020 22:30:00 18.9 C 73 % 13.96 C
1136 21-05-2020 22:35:00 18.8 C 74 % 14.07 C
1137 21-05-2020 22:40:00 18.8 C 74 % 14.07 C
1138 21-05-2020 22:45:00 18.7 C 74 % 13.97 C
1139 21-05-2020 22:50:00 18.7 C 74 % 13.97 C
1140 21-05-2020 22:55:00 18.7 C 74 % 13.97 C
1141 21-05-2020 23:00:00 18.7 C 73 % 13.76 C
1142 21-05-2020 23:05:00 18.8 C 73 % 13.86 C
1143 21-05-2020 23:10:00 18.9 C 73 % 13.96 C
1144 21-05-2020 23:15:00 18.9 C 73 % 13.96 C
1145 21-05-2020 23:20:00 18.9 C 73 % 13.96 C
1146 21-05-2020 23:25:00 18.9 C 73 % 13.96 C
1147 21-05-2020 23:30:00 18.8 C 73 % 13.86 C
1148 21-05-2020 23:35:00 18.7 C 73 % 13.76 C
1149 21-05-2020 23:40:00 18.6 C 73 % 13.67 C
1150 21-05-2020 23:45:00 18.4 C 74 % 13.68 C
Sensor: Nr:Datum:Temp:Feuchte:Taupunkt:
Aussen-T/F 1151 21-05-2020 23:50:00 18.3 C 74 % 13.59 C
1152 21-05-2020 23:55:00 18.2 C 74 % 13.49 C
1153 22-05-2020 00:00:00 18.1 C 75 % 13.6 C
1154 22-05-2020 00:05:00 17.9 C 75 % 13.41 C
1155 22-05-2020 00:10:00 17.9 C 75 % 13.41 C
1156 22-05-2020 00:15:00 17.8 C 75 % 13.31 C
1157 22-05-2020 00:20:00 17.7 C 76 % 13.42 C
1158 22-05-2020 00:25:00 17.6 C 76 % 13.32 C
1159 22-05-2020 00:30:00 17.5 C 76 % 13.23 C
1160 22-05-2020 00:35:00 17.4 C 76 % 13.13 C
1161 22-05-2020 00:40:00 17.4 C 77 % 13.33 C
1162 22-05-2020 00:45:00 17.3 C 77 % 13.23 C
1163 22-05-2020 00:50:00 17.2 C 77 % 13.14 C
1164 22-05-2020 00:55:00 16.9 C 77 % 12.84 C
1165 22-05-2020 01:00:00 16.8 C 78 % 12.94 C
1166 22-05-2020 01:05:00 16.7 C 78 % 12.85 C
1167 22-05-2020 01:10:00 16.6 C 79 % 12.95 C
1168 22-05-2020 01:15:00 16.4 C 79 % 12.75 C
1169 22-05-2020 01:20:00 16.3 C 79 % 12.65 C
1170 22-05-2020 01:25:00 16.3 C 80 % 12.85 C
1171 22-05-2020 01:30:00 16.2 C 80 % 12.75 C
1172 22-05-2020 01:35:00 16.1 C 80 % 12.65 C
1173 22-05-2020 01:40:00 15.9 C 81 % 12.65 C
1174 22-05-2020 01:45:00 15.9 C 81 % 12.65 C
1175 22-05-2020 01:50:00 15.8 C 81 % 12.55 C
Sensor: Nr:Datum:Temp:Feuchte:Taupunkt:
Aussen-T/F 1176 22-05-2020 01:55:00 15.7 C 82 % 12.64 C
1177 22-05-2020 02:00:00 15.6 C 83 % 12.72 C
1178 22-05-2020 02:05:00 15.6 C 83 % 12.72 C
1179 22-05-2020 02:10:00 15.5 C 83 % 12.63 C
1180 22-05-2020 02:15:00 15.4 C 83 % 12.53 C
1181 22-05-2020 02:20:00 15.3 C 84 % 12.61 C
1182 22-05-2020 02:25:00 15.3 C 84 % 12.61 C
1183 22-05-2020 02:30:00 15.3 C 85 % 12.79 C
1184 22-05-2020 02:35:00 15.2 C 85 % 12.7 C
1185 22-05-2020 02:40:00 15.2 C 85 % 12.7 C
1186 22-05-2020 02:45:00 15.1 C 85 % 12.6 C
1187 22-05-2020 02:50:00 15.1 C 85 % 12.6 C
1188 22-05-2020 02:55:00 15 C 85 % 12.5 C
1189 22-05-2020 03:00:00 14.9 C 85 % 12.4 C
1190 22-05-2020 03:05:00 14.9 C 86 % 12.58 C
1191 22-05-2020 03:10:00 14.8 C 86 % 12.48 C
1192 22-05-2020 03:15:00 14.8 C 86 % 12.48 C
1193 22-05-2020 03:20:00 14.8 C 86 % 12.48 C
1194 22-05-2020 03:25:00 14.7 C 86 % 12.38 C
1195 22-05-2020 03:30:00 14.6 C 86 % 12.29 C
1196 22-05-2020 03:35:00 14.5 C 86 % 12.19 C
1197 22-05-2020 03:40:00 14.4 C 86 % 12.09 C
1198 22-05-2020 03:45:00 14.4 C 86 % 12.09 C
1199 22-05-2020 03:50:00 14.3 C 86 % 11.99 C
1200 22-05-2020 03:55:00 14.2 C 86 % 11.89 C
Sensor: Nr:Datum:Temp:Feuchte:Taupunkt:
Aussen-T/F 1201 22-05-2020 04:00:00 14.1 C 87 % 11.97 C
1202 22-05-2020 04:05:00 13.9 C 87 % 11.77 C
1203 22-05-2020 04:10:00 13.8 C 87 % 11.68 C
1204 22-05-2020 04:15:00 13.7 C 88 % 11.75 C
1205 22-05-2020 04:20:00 13.7 C 89 % 11.92 C
1206 22-05-2020 04:25:00 13.6 C 89 % 11.82 C
1207 22-05-2020 04:30:00 13.6 C 89 % 11.82 C
1208 22-05-2020 04:35:00 13.4 C 89 % 11.63 C
1209 22-05-2020 04:40:00 13.4 C 89 % 11.63 C
1210 22-05-2020 04:45:00 13.3 C 89 % 11.53 C
1211 22-05-2020 04:50:00 13.3 C 90 % 11.7 C
1212 22-05-2020 04:55:00 13.2 C 90 % 11.6 C
1213 22-05-2020 05:00:00 13.2 C 90 % 11.6 C
1214 22-05-2020 05:05:00 13.2 C 90 % 11.6 C
1215 22-05-2020 05:10:00 13.1 C 91 % 11.67 C
1216 22-05-2020 05:15:00 13.1 C 91 % 11.67 C
1217 22-05-2020 05:20:00 13 C 91 % 11.57 C
1218 22-05-2020 05:25:00 13 C 91 % 11.57 C
1219 22-05-2020 05:30:00 12.9 C 91 % 11.47 C
1220 22-05-2020 05:35:00 12.8 C 91 % 11.37 C
1221 22-05-2020 05:40:00 12.8 C 91 % 11.37 C
1222 22-05-2020 05:45:00 12.8 C 92 % 11.53 C
1223 22-05-2020 05:50:00 12.7 C 92 % 11.43 C
1224 22-05-2020 05:55:00 12.8 C 92 % 11.53 C
1225 22-05-2020 06:00:00 12.8 C 92 % 11.53 C
Sensor: Nr:Datum:Temp:Feuchte:Taupunkt:
Aussen-T/F 1226 22-05-2020 06:05:00 12.8 C 92 % 11.53 C
1227 22-05-2020 06:10:00 12.8 C 93 % 11.7 C
1228 22-05-2020 06:15:00 12.9 C 93 % 11.8 C
1229 22-05-2020 06:20:00 13.1 C 93 % 11.99 C
1230 22-05-2020 06:25:00 13.1 C 93 % 11.99 C
1231 22-05-2020 06:30:00 13.2 C 93 % 12.09 C
1232 22-05-2020 06:35:00 13.3 C 93 % 12.19 C
1233 22-05-2020 06:40:00 13.5 C 94 % 12.55 C
1234 22-05-2020 06:45:00 13.7 C 94 % 12.75 C
1235 22-05-2020 06:50:00 13.8 C 94 % 12.85 C
1236 22-05-2020 06:55:00 14 C 94 % 13.05 C
1237 22-05-2020 07:00:00 14.2 C 94 % 13.25 C
1238 22-05-2020 07:05:00 14.3 C 94 % 13.35 C
1239 22-05-2020 07:10:00 14.4 C 93 % 13.28 C
1240 22-05-2020 07:15:00 14.6 C 93 % 13.48 C
1241 22-05-2020 07:20:00 14.7 C 93 % 13.58 C
1242 22-05-2020 07:25:00 14.9 C 93 % 13.78 C
1243 22-05-2020 07:30:00 15 C 93 % 13.88 C
1244 22-05-2020 07:35:00 15.2 C 92 % 13.91 C
1245 22-05-2020 07:40:00 15.3 C 92 % 14.01 C
1246 22-05-2020 07:45:00 15.4 C 91 % 13.94 C
1247 22-05-2020 07:50:00 15.6 C 91 % 14.14 C
1248 22-05-2020 07:55:00 15.8 C 90 % 14.16 C
1249 22-05-2020 08:00:00 16 C 90 % 14.36 C
1250 22-05-2020 08:05:00 16.2 C 89 % 14.39 C
Sensor: Nr:Datum:Temp:Feuchte:Taupunkt:
Aussen-T/F 1251 22-05-2020 08:10:00 16.4 C 88 % 14.41 C
1252 22-05-2020 08:15:00 16.7 C 86 % 14.35 C
1253 22-05-2020 08:20:00 17.1 C 85 % 14.56 C
1254 22-05-2020 08:25:00 17.4 C 84 % 14.67 C
1255 22-05-2020 08:30:00 17.7 C 84 % 14.96 C
1256 22-05-2020 08:35:00 18.1 C 81 % 14.79 C
1257 22-05-2020 08:40:00 18.4 C 80 % 14.89 C
1258 22-05-2020 08:45:00 18.7 C 79 % 14.99 C
1259 22-05-2020 08:50:00 18.9 C 79 % 15.18 C
1260 22-05-2020 08:55:00 19.1 C 78 % 15.18 C
1261 22-05-2020 09:00:00 19.3 C 77 % 15.17 C
1262 22-05-2020 09:05:00 19.3 C 77 % 15.17 C
1263 22-05-2020 09:10:00 19.4 C 76 % 15.06 C
1264 22-05-2020 09:15:00 19.6 C 76 % 15.26 C
1265 22-05-2020 09:20:00 19.8 C 76 % 15.45 C
1266 22-05-2020 09:25:00 19.9 C 75 % 15.34 C
1267 22-05-2020 09:30:00 20.1 C 74 % 15.32 C
1268 22-05-2020 09:35:00 20.1 C 74 % 15.32 C
1269 22-05-2020 09:40:00 20.2 C 75 % 15.63 C
1270 22-05-2020 09:45:00 20.3 C 75 % 15.72 C
1271 22-05-2020 09:50:00 20.4 C 75 % 15.82 C
1272 22-05-2020 09:55:00 20.6 C 74 % 15.8 C
1273 22-05-2020 10:00:00 20.7 C 74 % 15.9 C
1274 22-05-2020 10:05:00 20.9 C 74 % 16.09 C
1275 22-05-2020 10:10:00 21.1 C 73 % 16.07 C
Sensor: Nr:Datum:Temp:Feuchte:Taupunkt:
Aussen-T/F 1276 22-05-2020 10:15:00 21.3 C 73 % 16.26 C
1277 22-05-2020 10:20:00 21.5 C 72 % 16.24 C
1278 22-05-2020 10:25:00 21.7 C 72 % 16.43 C
1279 22-05-2020 10:30:00 21.8 C 71 % 16.31 C
1280 22-05-2020 10:35:00 21.9 C 71 % 16.4 C
1281 22-05-2020 10:40:00 21.9 C 71 % 16.4 C
1282 22-05-2020 10:45:00 22.1 C 71 % 16.6 C
1283 22-05-2020 10:50:00 22.3 C 70 % 16.56 C
1284 22-05-2020 10:55:00 22.6 C 70 % 16.85 C
1285 22-05-2020 11:00:00 22.8 C 69 % 16.82 C
1286 22-05-2020 11:05:00 23 C 69 % 17.01 C
1287 22-05-2020 11:10:00 23.2 C 67 % 16.73 C
1288 22-05-2020 11:15:00 23.4 C 66 % 16.69 C
1289 22-05-2020 11:20:00 23.5 C 66 % 16.78 C
1290 22-05-2020 11:25:00 23.7 C 67 % 17.21 C
1291 22-05-2020 11:30:00 23.8 C 64 % 16.58 C
1292 22-05-2020 11:35:00 23.9 C 63 % 16.43 C
1293 22-05-2020 11:40:00 24 C 63 % 16.52 C
1294 22-05-2020 11:45:00 24.1 C 63 % 16.62 C
1295 22-05-2020 11:50:00 24.3 C 62 % 16.55 C
1296 22-05-2020 11:55:00 24.4 C 61 % 16.39 C
1297 22-05-2020 12:00:00 24.4 C 60 % 16.13 C
1298 22-05-2020 12:05:00 24.4 C 60 % 16.13 C
1299 22-05-2020 12:10:00 24.5 C 61 % 16.49 C
1300 22-05-2020 12:15:00 24.4 C 60 % 16.13 C
Sensor: Nr:Datum:Temp:Feuchte:Taupunkt:
Aussen-T/F 1301 22-05-2020 12:20:00 24.4 C 62 % 16.65 C
1302 22-05-2020 12:25:00 24.5 C 60 % 16.23 C
1303 22-05-2020 12:30:00 24.6 C 61 % 16.58 C
1304 22-05-2020 12:35:00 24.5 C 61 % 16.49 C
1305 22-05-2020 12:40:00 24.6 C 61 % 16.58 C
1306 22-05-2020 12:45:00 24.6 C 61 % 16.58 C
1307 22-05-2020 12:50:00 24.6 C 63 % 17.09 C
1308 22-05-2020 12:55:00 24.7 C 61 % 16.67 C
1309 22-05-2020 13:00:00 24.7 C 64 % 17.43 C
1310 22-05-2020 13:05:00 24.7 C 63 % 17.18 C
1311 22-05-2020 13:10:00 24.7 C 62 % 16.93 C
1312 22-05-2020 13:15:00 24.8 C 62 % 17.02 C
1313 22-05-2020 13:20:00 24.9 C 61 % 16.86 C
1314 22-05-2020 13:25:00 24.9 C 60 % 16.6 C
1315 22-05-2020 13:30:00 25.1 C 66 % 18.3 C
1316 22-05-2020 13:35:00 25.3 C 59 % 16.71 C
1317 22-05-2020 13:40:00 25.4 C 59 % 16.81 C
1318 22-05-2020 13:45:00 25.6 C 62 % 17.78 C
1319 22-05-2020 13:50:00 25.8 C 58 % 16.91 C
1320 22-05-2020 13:55:00 26 C 57 % 16.82 C
1321 22-05-2020 14:00:00 26.1 C 59 % 17.46 C
1322 22-05-2020 14:05:00 26.2 C 60 % 17.82 C
1323 22-05-2020 14:10:00 26.2 C 58 % 17.28 C
1324 22-05-2020 14:15:00 26.2 C 59 % 17.55 C
1325 22-05-2020 14:20:00 26.3 C 58 % 17.38 C
Sensor: Nr:Datum:Temp:Feuchte:Taupunkt:
Aussen-T/F 1326 22-05-2020 14:25:00 26.3 C 59 % 17.65 C
1327 22-05-2020 14:30:00 26.4 C 57 % 17.19 C
1328 22-05-2020 14:35:00 26.3 C 57 % 17.1 C
1329 22-05-2020 14:40:00 26.2 C 57 % 17.01 C
1330 22-05-2020 14:45:00 26.2 C 56 % 16.73 C
1331 22-05-2020 14:50:00 26.3 C 56 % 16.82 C
1332 22-05-2020 14:55:00 26.4 C 55 % 16.63 C
1333 22-05-2020 15:00:00 26.3 C 55 % 16.54 C
1334 22-05-2020 15:05:00 26.3 C 54 % 16.25 C
1335 22-05-2020 15:10:00 26.5 C 54 % 16.44 C
1336 22-05-2020 15:15:00 26.6 C 54 % 16.53 C
1337 22-05-2020 15:20:00 26.8 C 54 % 16.71 C
1338 22-05-2020 15:25:00 26.8 C 53 % 16.42 C
1339 22-05-2020 15:30:00 26.6 C 53 % 16.23 C
1340 22-05-2020 15:35:00 26.4 C 54 % 16.34 C
1341 22-05-2020 15:40:00 26.2 C 55 % 16.45 C
1342 22-05-2020 15:45:00 26.1 C 55 % 16.35 C
1343 22-05-2020 15:50:00 25.9 C 55 % 16.17 C
1344 22-05-2020 15:55:00 25.9 C 56 % 16.45 C
1345 22-05-2020 16:00:00 25.9 C 56 % 16.45 C
1346 22-05-2020 16:05:00 25.9 C 57 % 16.73 C
1347 22-05-2020 16:10:00 25.9 C 55 % 16.17 C
1348 22-05-2020 16:15:00 25.9 C 55 % 16.17 C
1349 22-05-2020 16:20:00 25.9 C 55 % 16.17 C
1350 22-05-2020 16:25:00 26.1 C 55 % 16.35 C
Sensor: Nr:Datum:Temp:Feuchte:Taupunkt:
Aussen-T/F 1351 22-05-2020 16:30:00 26.2 C 56 % 16.73 C
1352 22-05-2020 16:35:00 26.2 C 54 % 16.16 C
1353 22-05-2020 16:40:00 26.2 C 56 % 16.73 C
1354 22-05-2020 16:45:00 26.3 C 55 % 16.54 C
1355 22-05-2020 16:50:00 26.3 C 56 % 16.82 C
1356 22-05-2020 16:55:00 26.2 C 55 % 16.45 C
1357 22-05-2020 17:00:00 26.2 C 56 % 16.73 C
1358 22-05-2020 17:05:00 26.1 C 55 % 16.35 C
1359 22-05-2020 17:10:00 26.1 C 55 % 16.35 C
1360 22-05-2020 17:15:00 26.1 C 56 % 16.64 C
1361 22-05-2020 17:20:00 26.2 C 56 % 16.73 C
1362 22-05-2020 17:25:00 26.3 C 57 % 17.1 C
1363 22-05-2020 17:30:00 26.4 C 58 % 17.47 C
1364 22-05-2020 17:35:00 26.4 C 55 % 16.63 C
1365 22-05-2020 17:40:00 26.4 C 57 % 17.19 C
1366 22-05-2020 17:45:00 26.3 C 58 % 17.38 C
1367 22-05-2020 17:50:00 26.2 C 57 % 17.01 C
1368 22-05-2020 17:55:00 26.1 C 56 % 16.64 C
1369 22-05-2020 18:00:00 25.9 C 57 % 16.73 C
1370 22-05-2020 18:05:00 25.9 C 58 % 17 C
1371 22-05-2020 18:10:00 25.8 C 59 % 17.18 C
1372 22-05-2020 18:15:00 25.7 C 57 % 16.54 C
1373 22-05-2020 18:20:00 25.6 C 61 % 17.52 C
1374 22-05-2020 18:25:00 25.3 C 62 % 17.5 C
1375 22-05-2020 18:30:00 25 C 64 % 17.72 C
Sensor: Nr:Datum:Temp:Feuchte:Taupunkt:
Aussen-T/F 1376 22-05-2020 18:35:00 24.8 C 65 % 17.77 C
1377 22-05-2020 18:40:00 24.7 C 66 % 17.92 C
1378 22-05-2020 18:45:00 24.4 C 67 % 17.87 C
1379 22-05-2020 18:50:00 24.2 C 67 % 17.68 C
1380 22-05-2020 18:55:00 24.1 C 67 % 17.59 C
1381 22-05-2020 19:00:00 24 C 66 % 17.26 C
1382 22-05-2020 19:05:00 24 C 65 % 17.01 C
1383 22-05-2020 19:10:00 24.1 C 64 % 16.86 C
1384 22-05-2020 19:15:00 24.4 C 62 % 16.65 C
1385 22-05-2020 19:20:00 24.6 C 63 % 17.09 C
1386 22-05-2020 19:25:00 24.7 C 63 % 17.18 C
1387 22-05-2020 19:30:00 24.7 C 64 % 17.43 C
1388 22-05-2020 19:35:00 24.6 C 63 % 17.09 C
1389 22-05-2020 19:40:00 24.4 C 65 % 17.39 C
1390 22-05-2020 19:45:00 24.2 C 64 % 16.96 C
1391 22-05-2020 19:50:00 23.9 C 65 % 16.92 C
1392 22-05-2020 19:55:00 23.7 C 65 % 16.73 C
1393 22-05-2020 20:00:00 23.5 C 66 % 16.78 C
1394 22-05-2020 20:05:00 23.2 C 68 % 16.97 C
1395 22-05-2020 20:10:00 22.7 C 70 % 16.95 C
1396 22-05-2020 20:15:00 22.2 C 71 % 16.69 C
1397 22-05-2020 20:20:00 21.7 C 73 % 16.65 C
1398 22-05-2020 20:25:00 21.2 C 74 % 16.38 C
1399 22-05-2020 20:30:00 20.8 C 76 % 16.41 C
1400 22-05-2020 20:35:00 20.5 C 77 % 16.33 C
Sensor: Nr:Datum:Temp:Feuchte:Taupunkt:
Aussen-T/F 1401 22-05-2020 20:40:00 20.2 C 79 % 16.44 C
1402 22-05-2020 20:45:00 19.9 C 79 % 16.15 C
1403 22-05-2020 20:50:00 19.7 C 79 % 15.96 C
1404 22-05-2020 20:55:00 19.5 C 81 % 16.15 C
1405 22-05-2020 21:00:00 19.3 C 82 % 16.15 C
1406 22-05-2020 21:05:00 19 C 83 % 16.05 C
1407 22-05-2020 21:10:00 18.8 C 84 % 16.04 C
1408 22-05-2020 21:15:00 18.6 C 86 % 16.21 C
1409 22-05-2020 21:20:00 18.4 C 86 % 16.02 C
1410 22-05-2020 21:25:00 18.3 C 87 % 16.1 C
1411 22-05-2020 21:30:00 18.2 C 87 % 16 C
1412 22-05-2020 21:35:00 18.1 C 88 % 16.08 C
1413 22-05-2020 21:40:00 18 C 89 % 16.16 C
1414 22-05-2020 21:45:00 17.9 C 89 % 16.06 C
1415 22-05-2020 21:50:00 17.8 C 90 % 16.14 C
1416 22-05-2020 21:55:00 17.8 C 90 % 16.14 C
1417 22-05-2020 22:00:00 17.7 C 90 % 16.04 C
1418 22-05-2020 22:05:00 17.7 C 91 % 16.21 C
1419 22-05-2020 22:10:00 17.6 C 91 % 16.11 C
1420 22-05-2020 22:15:00 17.6 C 92 % 16.28 C
1421 22-05-2020 22:20:00 17.6 C 92 % 16.28 C
1422 22-05-2020 22:25:00 17.6 C 92 % 16.28 C
1423 22-05-2020 22:30:00 17.5 C 92 % 16.19 C
1424 22-05-2020 22:35:00 17.4 C 93 % 16.26 C
1425 22-05-2020 22:40:00 17.4 C 93 % 16.26 C
Sensor: Nr:Datum:Temp:Feuchte:Taupunkt:
Aussen-T/F 1426 22-05-2020 22:45:00 17.3 C 93 % 16.16 C
1427 22-05-2020 22:50:00 17.3 C 93 % 16.16 C
1428 22-05-2020 22:55:00 17.3 C 93 % 16.16 C
1429 22-05-2020 23:00:00 17.3 C 93 % 16.16 C
1430 22-05-2020 23:05:00 17.2 C 93 % 16.06 C
1431 22-05-2020 23:10:00 17.2 C 93 % 16.06 C
1432 22-05-2020 23:15:00 17.2 C 93 % 16.06 C
1433 22-05-2020 23:20:00 17.2 C 94 % 16.23 C
1434 22-05-2020 23:25:00 17.1 C 94 % 16.13 C
1435 22-05-2020 23:30:00 17.1 C 94 % 16.13 C
1436 22-05-2020 23:35:00 17.1 C 94 % 16.13 C
1437 22-05-2020 23:40:00 17.1 C 94 % 16.13 C
1438 22-05-2020 23:45:00 16.9 C 94 % 15.93 C
1439 22-05-2020 23:50:00 16.9 C 94 % 15.93 C
1440 22-05-2020 23:55:00 16.8 C 94 % 15.83 C
1441 23-05-2020 00:00:00 16.8 C 94 % 15.83 C
1442 23-05-2020 00:05:00 16.8 C 94 % 15.83 C
1443 23-05-2020 00:10:00 16.8 C 94 % 15.83 C
1444 23-05-2020 00:15:00 16.8 C 95 % 15.99 C
1445 23-05-2020 00:20:00 16.7 C 95 % 15.9 C
1446 23-05-2020 00:25:00 16.7 C 95 % 15.9 C
1447 23-05-2020 00:30:00 16.7 C 94 % 15.73 C
1448 23-05-2020 00:35:00 16.7 C 95 % 15.9 C
1449 23-05-2020 00:40:00 16.6 C 95 % 15.8 C
1450 23-05-2020 00:45:00 16.6 C 95 % 15.8 C
Sensor: Nr:Datum:Temp:Feuchte:Taupunkt:
Aussen-T/F 1451 23-05-2020 00:50:00 16.6 C 95 % 15.8 C
1452 23-05-2020 00:55:00 16.6 C 95 % 15.8 C
1453 23-05-2020 01:00:00 16.6 C 95 % 15.8 C
1454 23-05-2020 01:05:00 16.6 C 95 % 15.8 C
1455 23-05-2020 01:10:00 16.5 C 95 % 15.7 C
1456 23-05-2020 01:15:00 16.6 C 95 % 15.8 C
1457 23-05-2020 01:20:00 16.6 C 96 % 15.96 C
1458 23-05-2020 01:25:00 16.6 C 95 % 15.8 C
1459 23-05-2020 01:30:00 16.5 C 95 % 15.7 C
1460 23-05-2020 01:35:00 16.3 C 95 % 15.5 C
1461 23-05-2020 01:40:00 15.9 C 94 % 14.94 C
1462 23-05-2020 01:45:00 15.4 C 92 % 14.11 C
1463 23-05-2020 01:50:00 15.1 C 92 % 13.81 C
1464 23-05-2020 01:55:00 14.8 C 93 % 13.68 C
1465 23-05-2020 02:00:00 14.7 C 93 % 13.58 C
1466 23-05-2020 02:05:00 14.5 C 93 % 13.38 C
1467 23-05-2020 02:10:00 14.3 C 93 % 13.18 C
1468 23-05-2020 02:15:00 14.3 C 94 % 13.35 C
1469 23-05-2020 02:20:00 14.2 C 94 % 13.25 C
1470 23-05-2020 02:25:00 14.2 C 94 % 13.25 C
1471 23-05-2020 02:30:00 14.2 C 94 % 13.25 C
1472 23-05-2020 02:35:00 14.1 C 94 % 13.15 C
1473 23-05-2020 02:40:00 14.1 C 94 % 13.15 C
1474 23-05-2020 02:45:00 14 C 94 % 13.05 C
1475 23-05-2020 02:50:00 13.9 C 95 % 13.11 C
Sensor: Nr:Datum:Temp:Feuchte:Taupunkt:
Aussen-T/F 1476 23-05-2020 02:55:00 13.9 C 95 % 13.11 C
1477 23-05-2020 03:00:00 13.9 C 95 % 13.11 C
1478 23-05-2020 03:05:00 13.8 C 95 % 13.01 C
1479 23-05-2020 03:10:00 13.8 C 95 % 13.01 C
1480 23-05-2020 03:15:00 13.7 C 95 % 12.91 C
1481 23-05-2020 03:20:00 13.7 C 95 % 12.91 C
1482 23-05-2020 03:25:00 13.6 C 95 % 12.81 C
1483 23-05-2020 03:30:00 13.6 C 95 % 12.81 C
1484 23-05-2020 03:35:00 13.5 C 95 % 12.72 C
1485 23-05-2020 03:40:00 13.5 C 95 % 12.72 C
1486 23-05-2020 03:45:00 13.6 C 95 % 12.81 C
1487 23-05-2020 03:50:00 13.6 C 95 % 12.81 C
1488 23-05-2020 03:55:00 13.6 C 95 % 12.81 C
1489 23-05-2020 04:00:00 13.6 C 96 % 12.97 C
1490 23-05-2020 04:05:00 13.7 C 96 % 13.07 C
1491 23-05-2020 04:10:00 13.7 C 96 % 13.07 C
1492 23-05-2020 04:15:00 13.8 C 96 % 13.17 C
1493 23-05-2020 04:20:00 13.8 C 96 % 13.17 C
1494 23-05-2020 04:25:00 13.8 C 96 % 13.17 C
1495 23-05-2020 04:30:00 13.8 C 96 % 13.17 C
1496 23-05-2020 04:35:00 13.8 C 96 % 13.17 C
1497 23-05-2020 04:40:00 13.8 C 96 % 13.17 C
1498 23-05-2020 04:45:00 13.7 C 96 % 13.07 C
1499 23-05-2020 04:50:00 13.4 C 95 % 12.62 C
1500 23-05-2020 04:55:00 13.1 C 94 % 12.16 C
Sensor: Nr:Datum:Temp:Feuchte:Taupunkt:
Aussen-T/F 1501 23-05-2020 05:00:00 12.7 C 94 % 11.76 C
1502 23-05-2020 05:05:00 12.5 C 94 % 11.56 C
1503 23-05-2020 05:10:00 12.3 C 94 % 11.36 C
1504 23-05-2020 05:15:00 12.2 C 95 % 11.42 C
1505 23-05-2020 05:20:00 12.1 C 95 % 11.32 C
1506 23-05-2020 05:25:00 12 C 95 % 11.22 C
1507 23-05-2020 05:30:00 11.9 C 95 % 11.13 C
1508 23-05-2020 05:35:00 11.8 C 95 % 11.03 C
1509 23-05-2020 05:40:00 11.8 C 95 % 11.03 C
1510 23-05-2020 05:45:00 11.7 C 95 % 10.93 C
1511 23-05-2020 05:50:00 11.6 C 95 % 10.83 C
1512 23-05-2020 05:55:00 11.6 C 95 % 10.83 C
1513 23-05-2020 06:00:00 11.4 C 95 % 10.63 C
1514 23-05-2020 06:05:00 11.4 C 95 % 10.63 C
1515 23-05-2020 06:10:00 11.4 C 95 % 10.63 C
1516 23-05-2020 06:15:00 11.5 C 95 % 10.73 C
1517 23-05-2020 06:20:00 11.6 C 96 % 10.98 C
1518 23-05-2020 06:25:00 11.6 C 96 % 10.98 C
1519 23-05-2020 06:30:00 11.6 C 96 % 10.98 C
1520 23-05-2020 06:35:00 11.6 C 96 % 10.98 C
1521 23-05-2020 06:40:00 11.7 C 96 % 11.08 C
1522 23-05-2020 06:45:00 11.7 C 96 % 11.08 C
1523 23-05-2020 06:50:00 11.8 C 96 % 11.18 C
1524 23-05-2020 06:55:00 11.9 C 96 % 11.28 C
1525 23-05-2020 07:00:00 12 C 96 % 11.38 C
Sensor: Nr:Datum:Temp:Feuchte:Taupunkt:
Aussen-T/F 1526 23-05-2020 07:05:00 12 C 96 % 11.38 C
1527 23-05-2020 07:10:00 12 C 96 % 11.38 C
1528 23-05-2020 07:15:00 12.1 C 96 % 11.48 C
1529 23-05-2020 07:20:00 12.2 C 96 % 11.58 C
1530 23-05-2020 07:25:00 12.2 C 96 % 11.58 C
1531 23-05-2020 07:30:00 12.3 C 96 % 11.68 C
1532 23-05-2020 07:35:00 12.4 C 96 % 11.78 C
1533 23-05-2020 07:40:00 12.6 C 96 % 11.98 C
1534 23-05-2020 07:45:00 12.7 C 97 % 12.24 C
1535 23-05-2020 07:50:00 12.8 C 97 % 12.34 C
1536 23-05-2020 07:55:00 12.9 C 97 % 12.44 C
1537 23-05-2020 08:00:00 12.9 C 96 % 12.28 C
1538 23-05-2020 08:05:00 12.9 C 96 % 12.28 C
1539 23-05-2020 08:10:00 12.9 C 96 % 12.28 C
1540 23-05-2020 08:15:00 12.9 C 96 % 12.28 C
1541 23-05-2020 08:20:00 12.9 C 96 % 12.28 C
1542 23-05-2020 08:25:00 13.1 C 96 % 12.48 C
1543 23-05-2020 08:30:00 13.2 C 97 % 12.73 C
1544 23-05-2020 08:35:00 13.2 C 96 % 12.58 C
1545 23-05-2020 08:40:00 13.2 C 96 % 12.58 C
1546 23-05-2020 08:45:00 13.2 C 96 % 12.58 C
1547 23-05-2020 08:50:00 13.2 C 96 % 12.58 C
1548 23-05-2020 08:55:00 13.2 C 96 % 12.58 C
1549 23-05-2020 09:00:00 13.3 C 96 % 12.68 C
1550 23-05-2020 09:05:00 13.2 C 95 % 12.42 C
Sensor: Nr:Datum:Temp:Feuchte:Taupunkt:
Aussen-T/F 1551 23-05-2020 09:10:00 13.1 C 95 % 12.32 C
1552 23-05-2020 09:15:00 13.1 C 95 % 12.32 C
1553 23-05-2020 09:20:00 12.9 C 95 % 12.12 C
1554 23-05-2020 09:25:00 12.8 C 95 % 12.02 C
1555 23-05-2020 09:30:00 12.8 C 95 % 12.02 C
1556 23-05-2020 09:35:00 12.8 C 95 % 12.02 C
1557 23-05-2020 09:40:00 12.9 C 95 % 12.12 C
1558 23-05-2020 09:45:00 12.9 C 95 % 12.12 C
1559 23-05-2020 09:50:00 13 C 95 % 12.22 C
1560 23-05-2020 09:55:00 12.9 C 94 % 11.96 C
1561 23-05-2020 10:00:00 12.9 C 94 % 11.96 C
1562 23-05-2020 10:05:00 12.9 C 94 % 11.96 C
1563 23-05-2020 10:10:00 12.9 C 95 % 12.12 C
1564 23-05-2020 10:15:00 13 C 95 % 12.22 C
1565 23-05-2020 10:20:00 13.1 C 95 % 12.32 C
1566 23-05-2020 10:25:00 13 C 94 % 12.06 C
1567 23-05-2020 10:30:00 12.7 C 93 % 11.6 C
1568 23-05-2020 10:35:00 12.3 C 90 % 10.71 C
1569 23-05-2020 10:40:00 12.1 C 89 % 10.34 C
1570 23-05-2020 10:45:00 11.8 C 84 % 9.19 C
1571 23-05-2020 10:50:00 11.7 C 85 % 9.27 C
1572 23-05-2020 10:55:00 11.6 C 88 % 9.68 C
1573 23-05-2020 11:00:00 11.6 C 90 % 10.02 C
1574 23-05-2020 11:05:00 11.6 C 91 % 10.18 C
1575 23-05-2020 11:10:00 11.5 C 91 % 10.08 C
Sensor: Nr:Datum:Temp:Feuchte:Taupunkt:
Aussen-T/F 1576 23-05-2020 11:15:00 11.5 C 92 % 10.25 C
1577 23-05-2020 11:20:00 11.6 C 92 % 10.35 C
1578 23-05-2020 11:25:00 11.8 C 93 % 10.71 C
1579 23-05-2020 11:30:00 11.9 C 93 % 10.81 C
1580 23-05-2020 11:35:00 12.1 C 92 % 10.84 C
1581 23-05-2020 11:40:00 12.1 C 93 % 11 C
1582 23-05-2020 11:45:00 12.3 C 93 % 11.2 C
1583 23-05-2020 11:50:00 12.4 C 93 % 11.3 C
1584 23-05-2020 11:55:00 12.3 C 91 % 10.87 C
1585 23-05-2020 12:00:00 12.4 C 91 % 10.97 C
1586 23-05-2020 12:05:00 12.4 C 90 % 10.81 C
1587 23-05-2020 12:10:00 12.3 C 89 % 10.54 C
1588 23-05-2020 12:15:00 12.3 C 90 % 10.71 C
1589 23-05-2020 12:20:00 12.3 C 90 % 10.71 C
1590 23-05-2020 12:25:00 12.3 C 89 % 10.54 C
1591 23-05-2020 12:30:00 12.3 C 89 % 10.54 C
1592 23-05-2020 12:35:00 12.3 C 88 % 10.37 C
1593 23-05-2020 12:40:00 12.3 C 88 % 10.37 C
1594 23-05-2020 12:45:00 12.3 C 89 % 10.54 C
1595 23-05-2020 12:50:00 12.3 C 90 % 10.71 C
1596 23-05-2020 12:55:00 12.4 C 90 % 10.81 C
1597 23-05-2020 13:00:00 12.4 C 90 % 10.81 C
1598 23-05-2020 13:05:00 12.5 C 90 % 10.91 C
1599 23-05-2020 13:10:00 12.6 C 89 % 10.84 C
1600 23-05-2020 13:15:00 12.7 C 89 % 10.94 C
Sensor: Nr:Datum:Temp:Feuchte:Taupunkt:
Aussen-T/F 1601 23-05-2020 13:20:00 12.8 C 88 % 10.86 C
1602 23-05-2020 13:25:00 12.9 C 87 % 10.79 C
1603 23-05-2020 13:30:00 13 C 87 % 10.89 C
1604 23-05-2020 13:35:00 12.9 C 85 % 10.44 C
1605 23-05-2020 13:40:00 13.1 C 86 % 10.81 C
1606 23-05-2020 13:45:00 13.3 C 87 % 11.18 C
1607 23-05-2020 13:50:00 13.4 C 87 % 11.28 C
1608 23-05-2020 13:55:00 13.4 C 86 % 11.11 C
1609 23-05-2020 14:00:00 13.3 C 84 % 10.66 C
1610 23-05-2020 14:05:00 13.3 C 85 % 10.83 C
1611 23-05-2020 14:10:00 13.3 C 84 % 10.66 C
1612 23-05-2020 14:15:00 13.3 C 85 % 10.83 C
1613 23-05-2020 14:20:00 13.4 C 83 % 10.57 C
1614 23-05-2020 14:25:00 13.5 C 84 % 10.85 C
1615 23-05-2020 14:30:00 13.7 C 85 % 11.23 C
1616 23-05-2020 14:35:00 14 C 84 % 11.34 C
1617 23-05-2020 14:40:00 14.1 C 82 % 11.08 C
1618 23-05-2020 14:45:00 14.2 C 82 % 11.17 C
1619 23-05-2020 14:50:00 14.2 C 82 % 11.17 C
1620 23-05-2020 14:55:00 14.3 C 82 % 11.27 C
1621 23-05-2020 15:00:00 14.4 C 82 % 11.37 C
1622 23-05-2020 15:05:00 14.6 C 81 % 11.38 C
1623 23-05-2020 15:10:00 14.7 C 80 % 11.29 C
1624 23-05-2020 15:15:00 14.7 C 79 % 11.1 C
1625 23-05-2020 15:20:00 14.9 C 79 % 11.29 C
Sensor: Nr:Datum:Temp:Feuchte:Taupunkt:
Aussen-T/F 1626 23-05-2020 15:25:00 15 C 78 % 11.2 C
1627 23-05-2020 15:30:00 15 C 78 % 11.2 C
1628 23-05-2020 15:35:00 15 C 79 % 11.39 C
1629 23-05-2020 15:40:00 15.1 C 77 % 11.1 C
1630 23-05-2020 15:45:00 15.1 C 76 % 10.9 C
1631 23-05-2020 15:50:00 15.3 C 77 % 11.3 C
1632 23-05-2020 15:55:00 15.3 C 76 % 11.1 C
1633 23-05-2020 16:00:00 15.4 C 75 % 11 C
1634 23-05-2020 16:05:00 15.7 C 75 % 11.28 C
1635 23-05-2020 16:10:00 15.8 C 74 % 11.18 C
1636 23-05-2020 16:15:00 15.8 C 74 % 11.18 C
1637 23-05-2020 16:20:00 15.8 C 72 % 10.77 C
1638 23-05-2020 16:25:00 15.9 C 74 % 11.28 C
1639 23-05-2020 16:30:00 16 C 70 % 10.54 C
1640 23-05-2020 16:35:00 16.1 C 69 % 10.42 C
1641 23-05-2020 16:40:00 16.2 C 71 % 10.94 C
1642 23-05-2020 16:45:00 16.3 C 71 % 11.04 C
1643 23-05-2020 16:50:00 16.3 C 72 % 11.25 C
1644 23-05-2020 16:55:00 16.2 C 71 % 10.94 C
1645 23-05-2020 17:00:00 16.2 C 70 % 10.73 C
1646 23-05-2020 17:05:00 16.1 C 72 % 11.06 C
1647 23-05-2020 17:10:00 15.8 C 73 % 10.97 C
1648 23-05-2020 17:15:00 15.8 C 73 % 10.97 C
1649 23-05-2020 17:20:00 15.8 C 73 % 10.97 C
1650 23-05-2020 17:25:00 15.7 C 74 % 11.08 C
Sensor: Nr:Datum:Temp:Feuchte:Taupunkt:
Aussen-T/F 1651 23-05-2020 17:30:00 15.4 C 74 % 10.79 C
1652 23-05-2020 17:35:00 15.4 C 77 % 11.39 C
1653 23-05-2020 17:40:00 15.4 C 79 % 11.78 C
1654 23-05-2020 17:45:00 15.6 C 77 % 11.59 C
1655 23-05-2020 17:50:00 16 C 77 % 11.97 C
1656 23-05-2020 17:55:00 16.6 C 76 % 12.36 C
1657 23-05-2020 18:00:00 16.7 C 72 % 11.63 C
1658 23-05-2020 18:05:00 16.8 C 73 % 11.94 C
1659 23-05-2020 18:10:00 16.9 C 72 % 11.82 C
1660 23-05-2020 18:15:00 16.9 C 72 % 11.82 C
1661 23-05-2020 18:20:00 16.4 C 71 % 11.13 C
1662 23-05-2020 18:25:00 15.9 C 72 % 10.86 C
1663 23-05-2020 18:30:00 15.6 C 74 % 10.99 C
1664 23-05-2020 18:35:00 15.3 C 76 % 11.1 C
1665 23-05-2020 18:40:00 15.2 C 80 % 11.78 C
1666 23-05-2020 18:45:00 15.2 C 82 % 12.15 C
1667 23-05-2020 18:50:00 15.1 C 79 % 11.49 C
1668 23-05-2020 18:55:00 15.1 C 78 % 11.3 C
1669 23-05-2020 19:00:00 15.7 C 76 % 11.48 C
1670 23-05-2020 19:05:00 15.9 C 74 % 11.28 C
1671 23-05-2020 19:10:00 16.2 C 74 % 11.56 C
1672 23-05-2020 19:15:00 16.1 C 74 % 11.47 C
1673 23-05-2020 19:20:00 15.6 C 73 % 10.78 C
1674 23-05-2020 19:25:00 15.2 C 76 % 11 C
1675 23-05-2020 19:30:00 15 C 76 % 10.81 C
Sensor: Nr:Datum:Temp:Feuchte:Taupunkt:
Aussen-T/F 1676 23-05-2020 19:35:00 15 C 78 % 11.2 C
1677 23-05-2020 19:40:00 15 C 77 % 11 C
1678 23-05-2020 19:45:00 14.9 C 77 % 10.91 C
1679 23-05-2020 19:50:00 15.1 C 77 % 11.1 C
1680 23-05-2020 19:55:00 15.2 C 77 % 11.2 C
1681 23-05-2020 20:00:00 15.3 C 76 % 11.1 C
1682 23-05-2020 20:05:00 15.2 C 76 % 11 C
1683 23-05-2020 20:10:00 15 C 76 % 10.81 C
1684 23-05-2020 20:15:00 14.8 C 77 % 10.81 C
1685 23-05-2020 20:20:00 14.8 C 79 % 11.2 C
1686 23-05-2020 20:25:00 14.7 C 78 % 10.91 C
1687 23-05-2020 20:30:00 14.6 C 79 % 11 C
1688 23-05-2020 20:35:00 14.6 C 79 % 11 C
1689 23-05-2020 20:40:00 14.4 C 79 % 10.81 C
1690 23-05-2020 20:45:00 14.3 C 79 % 10.71 C
1691 23-05-2020 20:50:00 14.2 C 79 % 10.61 C
1692 23-05-2020 20:55:00 14.1 C 80 % 10.71 C
1693 23-05-2020 21:00:00 13.9 C 80 % 10.51 C
1694 23-05-2020 21:05:00 13.8 C 80 % 10.41 C
1695 23-05-2020 21:10:00 13.7 C 81 % 10.5 C
1696 23-05-2020 21:15:00 13.5 C 82 % 10.49 C
1697 23-05-2020 21:20:00 13.3 C 81 % 10.11 C
1698 23-05-2020 21:25:00 13.2 C 81 % 10.01 C
1699 23-05-2020 21:30:00 13.2 C 81 % 10.01 C
1700 23-05-2020 21:35:00 13.1 C 81 % 9.92 C
Sensor: Nr:Datum:Temp:Feuchte:Taupunkt:
Aussen-T/F 1701 23-05-2020 21:40:00 13 C 81 % 9.82 C
1702 23-05-2020 21:45:00 12.9 C 82 % 9.9 C
1703 23-05-2020 21:50:00 12.7 C 82 % 9.71 C
1704 23-05-2020 21:55:00 12.6 C 83 % 9.79 C
1705 23-05-2020 22:00:00 12.3 C 83 % 9.5 C
1706 23-05-2020 22:05:00 12.3 C 83 % 9.5 C
1707 23-05-2020 22:10:00 12.2 C 84 % 9.58 C
1708 23-05-2020 22:15:00 12.2 C 84 % 9.58 C
1709 23-05-2020 22:20:00 12.1 C 84 % 9.48 C
1710 23-05-2020 22:25:00 12 C 84 % 9.38 C
1711 23-05-2020 22:30:00 11.9 C 85 % 9.46 C
1712 23-05-2020 22:35:00 11.8 C 85 % 9.36 C
1713 23-05-2020 22:40:00 11.7 C 85 % 9.27 C
1714 23-05-2020 22:45:00 11.6 C 86 % 9.34 C
1715 23-05-2020 22:50:00 11.5 C 86 % 9.24 C
1716 23-05-2020 22:55:00 11.4 C 86 % 9.14 C
1717 23-05-2020 23:00:00 11.3 C 86 % 9.05 C
1718 23-05-2020 23:05:00 11.3 C 86 % 9.05 C
1719 23-05-2020 23:10:00 11.3 C 87 % 9.22 C
1720 23-05-2020 23:15:00 11.2 C 87 % 9.12 C
1721 23-05-2020 23:20:00 11.2 C 87 % 9.12 C
1722 23-05-2020 23:25:00 11.1 C 87 % 9.02 C
1723 23-05-2020 23:30:00 10.9 C 88 % 8.99 C
1724 23-05-2020 23:35:00 10.9 C 88 % 8.99 C
1725 23-05-2020 23:40:00 10.9 C 88 % 8.99 C
Sensor: Nr:Datum:Temp:Feuchte:Taupunkt:
Aussen-T/F 1726 23-05-2020 23:45:00 10.9 C 88 % 8.99 C
1727 23-05-2020 23:50:00 10.8 C 88 % 8.89 C
1728 23-05-2020 23:55:00 10.8 C 89 % 9.06 C
1729 24-05-2020 00:00:00 10.7 C 89 % 8.96 C
1730 24-05-2020 00:05:00 10.7 C 89 % 8.96 C
1731 24-05-2020 00:10:00 10.6 C 89 % 8.86 C
1732 24-05-2020 00:15:00 10.6 C 89 % 8.86 C
1733 24-05-2020 00:20:00 10.5 C 89 % 8.77 C
1734 24-05-2020 00:25:00 10.5 C 89 % 8.77 C
1735 24-05-2020 00:30:00 10.5 C 89 % 8.77 C
1736 24-05-2020 00:35:00 10.4 C 89 % 8.67 C
1737 24-05-2020 00:40:00 10.3 C 89 % 8.57 C
1738 24-05-2020 00:45:00 10.3 C 89 % 8.57 C
1739 24-05-2020 00:50:00 10.4 C 89 % 8.67 C
1740 24-05-2020 00:55:00 10.3 C 89 % 8.57 C
1741 24-05-2020 01:00:00 10.3 C 89 % 8.57 C
1742 24-05-2020 01:05:00 10.3 C 89 % 8.57 C
1743 24-05-2020 01:10:00 10.2 C 89 % 8.47 C
1744 24-05-2020 01:15:00 10.2 C 88 % 8.3 C
1745 24-05-2020 01:20:00 10.2 C 88 % 8.3 C
1746 24-05-2020 01:25:00 10.2 C 88 % 8.3 C
1747 24-05-2020 01:30:00 10.2 C 87 % 8.14 C
1748 24-05-2020 01:35:00 10.1 C 87 % 8.04 C
1749 24-05-2020 01:40:00 10.1 C 87 % 8.04 C
1750 24-05-2020 01:45:00 10 C 87 % 7.94 C
Sensor: Nr:Datum:Temp:Feuchte:Taupunkt:
Aussen-T/F 1751 24-05-2020 01:50:00 9.9 C 87 % 7.84 C
1752 24-05-2020 01:55:00 9.9 C 87 % 7.84 C
1753 24-05-2020 02:00:00 9.8 C 86 % 7.57 C
1754 24-05-2020 02:05:00 9.8 C 86 % 7.57 C
1755 24-05-2020 02:10:00 9.9 C 85 % 7.5 C
1756 24-05-2020 02:15:00 10.1 C 84 % 7.52 C
1757 24-05-2020 02:20:00 10.2 C 83 % 7.45 C
1758 24-05-2020 02:25:00 10.2 C 82 % 7.27 C
1759 24-05-2020 02:30:00 10.3 C 82 % 7.37 C
1760 24-05-2020 02:35:00 10.3 C 81 % 7.19 C
1761 24-05-2020 02:40:00 10.4 C 81 % 7.28 C
1762 24-05-2020 02:45:00 10.4 C 81 % 7.28 C
1763 24-05-2020 02:50:00 10.4 C 81 % 7.28 C
1764 24-05-2020 02:55:00 10.4 C 81 % 7.28 C
1765 24-05-2020 03:00:00 10.4 C 81 % 7.28 C
1766 24-05-2020 03:05:00 10.4 C 82 % 7.46 C
1767 24-05-2020 03:10:00 10.4 C 82 % 7.46 C
1768 24-05-2020 03:15:00 10.3 C 81 % 7.19 C
1769 24-05-2020 03:20:00 10.3 C 81 % 7.19 C
1770 24-05-2020 03:25:00 10.4 C 80 % 7.1 C
1771 24-05-2020 03:30:00 10.4 C 80 % 7.1 C
1772 24-05-2020 03:35:00 10.6 C 80 % 7.3 C
1773 24-05-2020 03:40:00 10.6 C 80 % 7.3 C
1774 24-05-2020 03:45:00 10.6 C 79 % 7.11 C
1775 24-05-2020 03:50:00 10.6 C 79 % 7.11 C
Sensor: Nr:Datum:Temp:Feuchte:Taupunkt:
Aussen-T/F 1776 24-05-2020 03:55:00 10.6 C 79 % 7.11 C
1777 24-05-2020 04:00:00 10.6 C 79 % 7.11 C
1778 24-05-2020 04:05:00 10.5 C 79 % 7.02 C
1779 24-05-2020 04:10:00 10.4 C 79 % 6.92 C
1780 24-05-2020 04:15:00 10.3 C 79 % 6.82 C
1781 24-05-2020 04:20:00 10.3 C 79 % 6.82 C
1782 24-05-2020 04:25:00 10.3 C 79 % 6.82 C
1783 24-05-2020 04:30:00 10.3 C 79 % 6.82 C
1784 24-05-2020 04:35:00 10.2 C 80 % 6.91 C
1785 24-05-2020 04:40:00 10.2 C 80 % 6.91 C
1786 24-05-2020 04:45:00 10.2 C 80 % 6.91 C
1787 24-05-2020 04:50:00 10.2 C 80 % 6.91 C
1788 24-05-2020 04:55:00 10.2 C 79 % 6.73 C
1789 24-05-2020 05:00:00 10.2 C 80 % 6.91 C
1790 24-05-2020 05:05:00 10.2 C 79 % 6.73 C
1791 24-05-2020 05:10:00 10.2 C 79 % 6.73 C
1792 24-05-2020 05:15:00 10.2 C 80 % 6.91 C
1793 24-05-2020 05:20:00 10.2 C 80 % 6.91 C
1794 24-05-2020 05:25:00 10.2 C 80 % 6.91 C
1795 24-05-2020 05:30:00 10.2 C 80 % 6.91 C
1796 24-05-2020 05:35:00 10.2 C 80 % 6.91 C
1797 24-05-2020 05:40:00 10.2 C 80 % 6.91 C
1798 24-05-2020 05:45:00 10.2 C 80 % 6.91 C
1799 24-05-2020 05:50:00 10.3 C 79 % 6.82 C
1800 24-05-2020 05:55:00 10.3 C 80 % 7.01 C
Sensor: Nr:Datum:Temp:Feuchte:Taupunkt:
Aussen-T/F 1801 24-05-2020 06:00:00 10.3 C 80 % 7.01 C
1802 24-05-2020 06:05:00 10.3 C 80 % 7.01 C
1803 24-05-2020 06:10:00 10.2 C 80 % 6.91 C
1804 24-05-2020 06:15:00 10.2 C 80 % 6.91 C
1805 24-05-2020 06:20:00 10.2 C 81 % 7.09 C
1806 24-05-2020 06:25:00 10.3 C 81 % 7.19 C
1807 24-05-2020 06:30:00 10.3 C 82 % 7.37 C
1808 24-05-2020 06:35:00 10.3 C 82 % 7.37 C
1809 24-05-2020 06:40:00 10.3 C 82 % 7.37 C
1810 24-05-2020 06:45:00 10.3 C 82 % 7.37 C
1811 24-05-2020 06:50:00 10.2 C 82 % 7.27 C
1812 24-05-2020 06:55:00 10.2 C 83 % 7.45 C
1813 24-05-2020 07:00:00 10.2 C 82 % 7.27 C
1814 24-05-2020 07:05:00 10.3 C 82 % 7.37 C
1815 24-05-2020 07:10:00 10.3 C 83 % 7.54 C
1816 24-05-2020 07:15:00 10.2 C 82 % 7.27 C
1817 24-05-2020 07:20:00 10.3 C 82 % 7.37 C
1818 24-05-2020 07:25:00 10.3 C 82 % 7.37 C
1819 24-05-2020 07:30:00 10.2 C 82 % 7.27 C
1820 24-05-2020 07:35:00 10.2 C 82 % 7.27 C
1821 24-05-2020 07:40:00 10.3 C 82 % 7.37 C
1822 24-05-2020 07:45:00 10.3 C 82 % 7.37 C
1823 24-05-2020 07:50:00 10.4 C 82 % 7.46 C
1824 24-05-2020 07:55:00 10.6 C 82 % 7.66 C
1825 24-05-2020 08:00:00 10.7 C 82 % 7.76 C
Sensor: Nr:Datum:Temp:Feuchte:Taupunkt:
Aussen-T/F 1826 24-05-2020 08:05:00 10.7 C 82 % 7.76 C
1827 24-05-2020 08:10:00 10.8 C 82 % 7.85 C
1828 24-05-2020 08:15:00 10.9 C 82 % 7.95 C
1829 24-05-2020 08:20:00 11 C 81 % 7.87 C
1830 24-05-2020 08:25:00 11.1 C 81 % 7.97 C
1831 24-05-2020 08:30:00 11.2 C 81 % 8.06 C
1832 24-05-2020 08:35:00 11.3 C 80 % 7.98 C
1833 24-05-2020 08:40:00 11.3 C 80 % 7.98 C
1834 24-05-2020 08:45:00 11.4 C 79 % 7.89 C
1835 24-05-2020 08:50:00 11.6 C 80 % 8.27 C
1836 24-05-2020 08:55:00 11.7 C 79 % 8.18 C
1837 24-05-2020 09:00:00 11.8 C 79 % 8.28 C
1838 24-05-2020 09:05:00 12.1 C 78 % 8.38 C
1839 24-05-2020 09:10:00 12.2 C 78 % 8.48 C
1840 24-05-2020 09:15:00 12.3 C 78 % 8.58 C
1841 24-05-2020 09:20:00 12.4 C 77 % 8.49 C
1842 24-05-2020 09:25:00 12.6 C 77 % 8.68 C
1843 24-05-2020 09:30:00 12.8 C 76 % 8.68 C
1844 24-05-2020 09:35:00 12.9 C 77 % 8.97 C
1845 24-05-2020 09:40:00 13.2 C 76 % 9.07 C
1846 24-05-2020 09:45:00 13.3 C 76 % 9.16 C
1847 24-05-2020 09:50:00 13.6 C 75 % 9.26 C
1848 24-05-2020 09:55:00 13.7 C 75 % 9.35 C
1849 24-05-2020 10:00:00 13.8 C 74 % 9.25 C
1850 24-05-2020 10:05:00 14.2 C 73 % 9.43 C
Sensor: Nr:Datum:Temp:Feuchte:Taupunkt:
Aussen-T/F 1851 24-05-2020 10:10:00 14.2 C 72 % 9.23 C
1852 24-05-2020 10:15:00 14.2 C 73 % 9.43 C
1853 24-05-2020 10:20:00 14.2 C 73 % 9.43 C
1854 24-05-2020 10:25:00 14.3 C 74 % 9.73 C
1855 24-05-2020 10:30:00 14.4 C 74 % 9.83 C
1856 24-05-2020 10:35:00 14.5 C 72 % 9.52 C
1857 24-05-2020 10:40:00 14.5 C 71 % 9.31 C
1858 24-05-2020 10:45:00 14.7 C 70 % 9.29 C
1859 24-05-2020 10:50:00 14.9 C 67 % 8.83 C
1860 24-05-2020 10:55:00 15.1 C 66 % 8.8 C
1861 24-05-2020 11:00:00 15.1 C 65 % 8.58 C
1862 24-05-2020 11:05:00 15.2 C 63 % 8.21 C
1863 24-05-2020 11:10:00 15.2 C 62 % 7.98 C
1864 24-05-2020 11:15:00 15.2 C 63 % 8.21 C
1865 24-05-2020 11:20:00 15.2 C 63 % 8.21 C
1866 24-05-2020 11:25:00 15.3 C 63 % 8.31 C
1867 24-05-2020 11:30:00 15.5 C 63 % 8.49 C
1868 24-05-2020 11:35:00 15.7 C 62 % 8.45 C
1869 24-05-2020 11:40:00 15.9 C 60 % 8.15 C
1870 24-05-2020 11:45:00 15.9 C 59 % 7.91 C
1871 24-05-2020 11:50:00 16.1 C 60 % 8.34 C
1872 24-05-2020 11:55:00 16.3 C 58 % 8.03 C
1873 24-05-2020 12:00:00 16.4 C 56 % 7.61 C
1874 24-05-2020 12:05:00 16.6 C 57 % 8.06 C
1875 24-05-2020 12:10:00 16.5 C 59 % 8.47 C
Sensor: Nr:Datum:Temp:Feuchte:Taupunkt:
Aussen-T/F 1876 24-05-2020 12:15:00 16.5 C 58 % 8.22 C
1877 24-05-2020 12:20:00 16.5 C 58 % 8.22 C
1878 24-05-2020 12:25:00 16.7 C 58 % 8.4 C
1879 24-05-2020 12:30:00 16.8 C 55 % 7.72 C
1880 24-05-2020 12:35:00 16.9 C 56 % 8.07 C
1881 24-05-2020 12:40:00 17.1 C 54 % 7.73 C
1882 24-05-2020 12:45:00 17.2 C 54 % 7.82 C
1883 24-05-2020 12:50:00 17.4 C 53 % 7.73 C
1884 24-05-2020 12:55:00 17.4 C 54 % 8.01 C
1885 24-05-2020 13:00:00 17.4 C 54 % 8.01 C
1886 24-05-2020 13:05:00 17.4 C 55 % 8.28 C
1887 24-05-2020 13:10:00 17.3 C 52 % 7.36 C
1888 24-05-2020 13:15:00 17.3 C 53 % 7.64 C
1889 24-05-2020 13:20:00 17.4 C 55 % 8.28 C
1890 24-05-2020 13:25:00 17.6 C 53 % 7.92 C
1891 24-05-2020 13:30:00 17.7 C 55 % 8.55 C
1892 24-05-2020 13:35:00 17.8 C 54 % 8.38 C
1893 24-05-2020 13:40:00 17.7 C 53 % 8.01 C
1894 24-05-2020 13:45:00 17.7 C 54 % 8.28 C
1895 24-05-2020 13:50:00 17.7 C 55 % 8.55 C
1896 24-05-2020 13:55:00 17.5 C 54 % 8.1 C
1897 24-05-2020 14:00:00 17.3 C 55 % 8.18 C
1898 24-05-2020 14:05:00 17.2 C 55 % 8.09 C
1899 24-05-2020 14:10:00 17.1 C 57 % 8.52 C
1900 24-05-2020 14:15:00 17 C 56 % 8.17 C
Sensor: Nr:Datum:Temp:Feuchte:Taupunkt:
Aussen-T/F 1901 24-05-2020 14:20:00 16.9 C 56 % 8.07 C
1902 24-05-2020 14:25:00 16.9 C 57 % 8.34 C
1903 24-05-2020 14:30:00 16.9 C 56 % 8.07 C
1904 24-05-2020 14:35:00 16.9 C 56 % 8.07 C
1905 24-05-2020 14:40:00 16.9 C 57 % 8.34 C
1906 24-05-2020 14:45:00 17 C 57 % 8.43 C
1907 24-05-2020 14:50:00 17 C 57 % 8.43 C
1908 24-05-2020 14:55:00 17 C 57 % 8.43 C
1909 24-05-2020 15:00:00 17.1 C 57 % 8.52 C
1910 24-05-2020 15:05:00 17.1 C 57 % 8.52 C
1911 24-05-2020 15:10:00 17.1 C 58 % 8.78 C
1912 24-05-2020 15:15:00 17.1 C 57 % 8.52 C
1913 24-05-2020 15:20:00 17 C 57 % 8.43 C
1914 24-05-2020 15:25:00 16.9 C 58 % 8.59 C
1915 24-05-2020 15:30:00 16.8 C 59 % 8.75 C
1916 24-05-2020 15:35:00 16.8 C 60 % 9 C
1917 24-05-2020 15:40:00 16.7 C 60 % 8.9 C
1918 24-05-2020 15:45:00 16.7 C 61 % 9.15 C
1919 24-05-2020 15:50:00 16.7 C 61 % 9.15 C
1920 24-05-2020 15:55:00 16.7 C 61 % 9.15 C
1921 24-05-2020 16:00:00 16.8 C 60 % 9 C
1922 24-05-2020 16:05:00 16.8 C 63 % 9.72 C
1923 24-05-2020 16:10:00 16.8 C 63 % 9.72 C
1924 24-05-2020 16:15:00 16.7 C 63 % 9.63 C
1925 24-05-2020 16:20:00 16.6 C 62 % 9.3 C
Sensor: Nr:Datum:Temp:Feuchte:Taupunkt:
Aussen-T/F 1926 24-05-2020 16:25:00 16.6 C 61 % 9.06 C
1927 24-05-2020 16:30:00 16.6 C 62 % 9.3 C
1928 24-05-2020 16:35:00 16.6 C 63 % 9.53 C
1929 24-05-2020 16:40:00 16.6 C 63 % 9.53 C
1930 24-05-2020 16:45:00 16.6 C 63 % 9.53 C
1931 24-05-2020 16:50:00 16.6 C 63 % 9.53 C
1932 24-05-2020 16:55:00 16.6 C 63 % 9.53 C
1933 24-05-2020 17:00:00 16.7 C 63 % 9.63 C
1934 24-05-2020 17:05:00 16.7 C 63 % 9.63 C
1935 24-05-2020 17:10:00 16.7 C 63 % 9.63 C
1936 24-05-2020 17:15:00 16.7 C 64 % 9.86 C
1937 24-05-2020 17:20:00 16.7 C 65 % 10.09 C
1938 24-05-2020 17:25:00 16.6 C 64 % 9.77 C
1939 24-05-2020 17:30:00 16.6 C 65 % 10 C
1940 24-05-2020 17:35:00 16.6 C 66 % 10.23 C
1941 24-05-2020 17:40:00 16.6 C 65 % 10 C
1942 24-05-2020 17:45:00 16.6 C 65 % 10 C
1943 24-05-2020 17:50:00 16.6 C 66 % 10.23 C
1944 24-05-2020 17:55:00 16.6 C 66 % 10.23 C
1945 24-05-2020 18:00:00 16.6 C 66 % 10.23 C
1946 24-05-2020 18:05:00 16.6 C 66 % 10.23 C
1947 24-05-2020 18:10:00 16.6 C 65 % 10 C
1948 24-05-2020 18:15:00 16.6 C 65 % 10 C
1949 24-05-2020 18:20:00 16.6 C 66 % 10.23 C
1950 24-05-2020 18:25:00 16.6 C 67 % 10.45 C
Sensor: Nr:Datum:Temp:Feuchte:Taupunkt:
Aussen-T/F 1951 24-05-2020 18:30:00 16.4 C 68 % 10.48 C
1952 24-05-2020 18:35:00 16.1 C 71 % 10.84 C
1953 24-05-2020 18:40:00 15.7 C 74 % 11.08 C
1954 24-05-2020 18:45:00 15.4 C 78 % 11.59 C
1955 24-05-2020 18:50:00 15.3 C 80 % 11.87 C
1956 24-05-2020 18:55:00 15.2 C 81 % 11.96 C
1957 24-05-2020 19:00:00 15.1 C 81 % 11.87 C
1958 24-05-2020 19:05:00 14.9 C 82 % 11.86 C
1959 24-05-2020 19:10:00 14.8 C 83 % 11.94 C
1960 24-05-2020 19:15:00 14.7 C 83 % 11.85 C
1961 24-05-2020 19:20:00 14.6 C 84 % 11.93 C
1962 24-05-2020 19:25:00 14.4 C 84 % 11.73 C
1963 24-05-2020 19:30:00 14.3 C 84 % 11.64 C
1964 24-05-2020 19:35:00 14.3 C 85 % 11.81 C
1965 24-05-2020 19:40:00 14.3 C 85 % 11.81 C
1966 24-05-2020 19:45:00 14.3 C 85 % 11.81 C
1967 24-05-2020 19:50:00 14.2 C 86 % 11.89 C
1968 24-05-2020 19:55:00 14.2 C 86 % 11.89 C
1969 24-05-2020 20:00:00 14.2 C 86 % 11.89 C
1970 24-05-2020 20:05:00 14.1 C 86 % 11.8 C
1971 24-05-2020 20:10:00 14.1 C 86 % 11.8 C
1972 24-05-2020 20:15:00 14.1 C 86 % 11.8 C
1973 24-05-2020 20:20:00 14.2 C 85 % 11.72 C
1974 24-05-2020 20:25:00 14.6 C 83 % 11.75 C
1975 24-05-2020 20:30:00 15 C 81 % 11.77 C
Sensor: Nr:Datum:Temp:Feuchte:Taupunkt:
Aussen-T/F 1976 24-05-2020 20:35:00 15.3 C 78 % 11.49 C
1977 24-05-2020 20:40:00 15.4 C 78 % 11.59 C
1978 24-05-2020 20:45:00 15.4 C 78 % 11.59 C
1979 24-05-2020 20:50:00 15.3 C 78 % 11.49 C
1980 24-05-2020 20:55:00 15.3 C 77 % 11.3 C
1981 24-05-2020 21:00:00 15.3 C 79 % 11.68 C
1982 24-05-2020 21:05:00 15.2 C 79 % 11.59 C
1983 24-05-2020 21:10:00 15.1 C 80 % 11.68 C
1984 24-05-2020 21:15:00 14.9 C 80 % 11.48 C
1985 24-05-2020 21:20:00 14.7 C 81 % 11.48 C
1986 24-05-2020 21:25:00 14.6 C 81 % 11.38 C
1987 24-05-2020 21:30:00 14.4 C 81 % 11.18 C
1988 24-05-2020 21:35:00 14.4 C 82 % 11.37 C
1989 24-05-2020 21:40:00 14.4 C 82 % 11.37 C
1990 24-05-2020 21:45:00 14.3 C 82 % 11.27 C
1991 24-05-2020 21:50:00 14.3 C 82 % 11.27 C
1992 24-05-2020 21:55:00 14.3 C 83 % 11.45 C
1993 24-05-2020 22:00:00 14.3 C 83 % 11.45 C
1994 24-05-2020 22:05:00 14.2 C 83 % 11.36 C
1995 24-05-2020 22:10:00 14.2 C 83 % 11.36 C
1996 24-05-2020 22:15:00 14.2 C 83 % 11.36 C
1997 24-05-2020 22:20:00 14.2 C 83 % 11.36 C
1998 24-05-2020 22:25:00 14.1 C 83 % 11.26 C
1999 24-05-2020 22:30:00 14.1 C 84 % 11.44 C
2000 24-05-2020 22:35:00 14.1 C 84 % 11.44 C
Sensor: Nr:Datum:Temp:Feuchte:Taupunkt:
Aussen-T/F 2001 24-05-2020 22:40:00 14.1 C 84 % 11.44 C
2002 24-05-2020 22:45:00 14.1 C 84 % 11.44 C
2003 24-05-2020 22:50:00 14 C 84 % 11.34 C
2004 24-05-2020 22:55:00 14 C 84 % 11.34 C
2005 24-05-2020 23:00:00 14 C 84 % 11.34 C
2006 24-05-2020 23:05:00 14.1 C 84 % 11.44 C
2007 24-05-2020 23:10:00 14.1 C 83 % 11.26 C
2008 24-05-2020 23:15:00 14.1 C 84 % 11.44 C
2009 24-05-2020 23:20:00 14.2 C 84 % 11.54 C
2010 24-05-2020 23:25:00 14.2 C 84 % 11.54 C
2011 24-05-2020 23:30:00 14.1 C 84 % 11.44 C
2012 24-05-2020 23:35:00 14.1 C 83 % 11.26 C
2013 24-05-2020 23:40:00 14.1 C 83 % 11.26 C
2014 24-05-2020 23:45:00 14.1 C 84 % 11.44 C
2015 24-05-2020 23:50:00 14 C 84 % 11.34 C
2016 24-05-2020 23:55:00 13.9 C 84 % 11.24 C

Legende:
   Min
   Max


Maximal/Minimal-Werte vom 18.05.2020 - 24.05.2020

Sensor Min Max Avg
Temp
(Aussen-T/F)
5.8 °C
18-05-2020  06:15:00
29.2 °C
21-05-2020  17:15:00
16.62 °C
Feuchte
(Aussen-T/F)
34 %
18-05-2020  16:50:00
97 %
23-05-2020  07:45:00
72.77 %
Taupunkt
(Aussen-T/F)
4.23 C
18-05-2020  05:35:00
18.3 C
22-05-2020  13:30:00
11.08 C

Die Daten stammen von einer Davis Vantage Pro 2 Wetter-Station und werden unter Linux mit der Software wview2wettercgi und aufbereitet. Alle Angaben erfolgen ohne Gewähr für ihre Vollständigkeit oder Richtigkeit.
Kontakt: Rainer Krienke krienke@uni-koblenz.de . Meine Webseiten an der Uni Koblenz oder privat.
Version: $Revision: 0.78 $